Observation data for Dell City 1N on 11/18/2019      Previous  Date       Current Mesonet Observations  Soil Data  Daily Summary Page  Observations in Plain Language
KDC1 180600Z 27004KT 04/M01 A3015 RMK A01 T00361014  RH  070%=      5-min Rain = 0
KDC1 180601Z 27004KT 04/M01 A3015 RMK A01 T00351014  RH  070%=      5-min Rain = 0
KDC1 180602Z 26004KT 04/M01 A3015 RMK A01 T00351013  RH  071%=      5-min Rain = 0
KDC1 180603Z 26002KT 04/M01 A3015 RMK A01 T00351013  RH  071%=      5-min Rain = 0
KDC1 180604Z 26002KT 04/M01 A3015 RMK A01 T00351012  RH  071%=      5-min Rain = 0
KDC1 180605Z 28003KT 04/M01 A3015 RMK A01 T00351012  RH  071%=      5-min Rain = 0
KDC1 180606Z 28003KT 04/M01 A3015 RMK A01 T00361012  RH  071%=      5-min Rain = 0
KDC1 180607Z 28004KT 04/M01 A3015 RMK A01 T00361011  RH  071%=      5-min Rain = 0
KDC1 180608Z 27004KT 04/M01 A3015 RMK A01 T00361011  RH  071%=      5-min Rain = 0
KDC1 180609Z 25004KT 04/M01 A3015 RMK A01 T00361012  RH  071%=      5-min Rain = 0
KDC1 180610Z 21002KT 04/M01 A3015 RMK A01 T00351012  RH  071%=      5-min Rain = 0
KDC1 180611Z 17004KT 03/M01 A3015 RMK A01 T00341012  RH  072%=      5-min Rain = 0
KDC1 180612Z 15004KT 03/M02 A3015 RMK A01 T00311016  RH  071%=      5-min Rain = 0
KDC1 180613Z 15002KT 03/M02 A3015 RMK A01 T00251020  RH  072%=      5-min Rain = 0
KDC1 180614Z 22000KT 02/M02 A3015 RMK A01 T00221020  RH  074%=      5-min Rain = 0
KDC1 180615Z 26002KT 02/M02 A3015 RMK A01 T00201019  RH  075%=      5-min Rain = 0
KDC1 180616Z 26004KT 02/M02 A3015 RMK A01 T00211017  RH  076%=      5-min Rain = 0
KDC1 180617Z 25005KT 02/M01 A3015 RMK A01 T00231014  RH  077%=      5-min Rain = 0
KDC1 180618Z 25006KT 03/M01 A3015 RMK A01 T00271012  RH  075%=      5-min Rain = 0
KDC1 180619Z 26005KT 03/M01 A3015 RMK A01 T00321012  RH  073%=      5-min Rain = 0
KDC1 180620Z 25004KT 04/M01 A3014 RMK A01 T00351012  RH  071%=      5-min Rain = 0
KDC1 180621Z 23003KT 04/M01 A3014 RMK A01 T00361013  RH  070%=      5-min Rain = 0
KDC1 180622Z 24004KT 04/M01 A3014 RMK A01 T00371013  RH  070%=      5-min Rain = 0
KDC1 180623Z 25004KT 04/M01 A3014 RMK A01 T00371014  RH  069%=      5-min Rain = 0
KDC1 180624Z 24004KT 04/M01 A3014 RMK A01 T00381014  RH  069%=      5-min Rain = 0
KDC1 180625Z 23005KT 04/M01 A3014 RMK A01 T00381014  RH  069%=      5-min Rain = 0
KDC1 180626Z 21004KT 04/M01 A3015 RMK A01 T00381014  RH  069%=      5-min Rain = 0
KDC1 180627Z 22003KT 04/M01 A3014 RMK A01 T00381014  RH  069%=      5-min Rain = 0
KDC1 180628Z 23003KT 04/M01 A3014 RMK A01 T00381014  RH  069%=      5-min Rain = 0
KDC1 180629Z 22003KT 04/M01 A3014 RMK A01 T00391014  RH  069%=      5-min Rain = 0
KDC1 180630Z 18001KT 04/M01 A3014 RMK A01 T00391014  RH  068%=      5-min Rain = 0
KDC1 180631Z 19002KT 04/M02 A3014 RMK A01 T00391015  RH  068%=      5-min Rain = 0
KDC1 180632Z 21001KT 04/M02 A3014 RMK A01 T00361017  RH  069%=      5-min Rain = 0
KDC1 180633Z 23002KT 04/M02 A3014 RMK A01 T00351016  RH  070%=      5-min Rain = 0
KDC1 180634Z 24001KT 03/M02 A3014 RMK A01 T00341016  RH  070%=      5-min Rain = 0
KDC1 180635Z 21002KT 03/M02 A3014 RMK A01 T00321017  RH  070%=      5-min Rain = 0
KDC1 180636Z 22003KT 03/M02 A3014 RMK A01 T00301019  RH  070%=      5-min Rain = 0
KDC1 180637Z 22003KT 03/M02 A3014 RMK A01 T00281019  RH  071%=      5-min Rain = 0
KDC1 180638Z 23002KT 03/M02 A3014 RMK A01 T00271018  RH  072%=      5-min Rain = 0
KDC1 180639Z 25002KT 03/M02 A3014 RMK A01 T00281017  RH  072%=      5-min Rain = 0
KDC1 180640Z 25003KT 03/M02 A3013 RMK A01 T00281018  RH  072%=      5-min Rain = 0
KDC1 180641Z 25003KT 03/M02 A3014 RMK A01 T00291018  RH  071%=      5-min Rain = 0
KDC1 180642Z 25003KT 03/M02 A3014 RMK A01 T00291019  RH  071%=      5-min Rain = 0
KDC1 180643Z 25003KT 03/M02 A3014 RMK A01 T00291019  RH  071%=      5-min Rain = 0
KDC1 180644Z 24002KT 03/M02 A3014 RMK A01 T00281019  RH  071%=      5-min Rain = 0
KDC1 180645Z 26003KT 03/M02 A3014 RMK A01 T00281019  RH  071%=      5-min Rain = 0
KDC1 180646Z 27003KT 03/M02 A3014 RMK A01 T00271019  RH  071%=      5-min Rain = 0
KDC1 180647Z 28003KT 03/M02 A3014 RMK A01 T00271019  RH  072%=      5-min Rain = 0
KDC1 180648Z 27002KT 03/M02 A3014 RMK A01 T00271018  RH  072%=      5-min Rain = 0
KDC1 180649Z 26003KT 03/M02 A3014 RMK A01 T00261019  RH  072%=      5-min Rain = 0
KDC1 180650Z 25003KT 03/M02 A3014 RMK A01 T00261018  RH  073%=      5-min Rain = 0
KDC1 180651Z 24003KT 03/M02 A3014 RMK A01 T00261018  RH  073%=      5-min Rain = 0
KDC1 180652Z 25003KT 03/M02 A3014 RMK A01 T00261018  RH  072%=      5-min Rain = 0
KDC1 180653Z 24004KT 03/M02 A3014 RMK A01 T00261019  RH  072%=      5-min Rain = 0
KDC1 180654Z 23004KT 02/M02 A3014 RMK A01 T00241019  RH  073%=      5-min Rain = 0
KDC1 180655Z 22004KT 02/M02 A3014 RMK A01 T00231020  RH  073%=      5-min Rain = 0
KDC1 180656Z 24004KT 02/M02 A3014 RMK A01 T00231020  RH  073%=      5-min Rain = 0
KDC1 180657Z 24004KT 02/M02 A3013 RMK A01 T00241019  RH  073%=      5-min Rain = 0
KDC1 180658Z 24004KT 03/M02 A3013 RMK A01 T00251020  RH  073%=      5-min Rain = 0
KDC1 180659Z 23002KT 03/M02 A3013 RMK A01 T00251020  RH  072%=      5-min Rain = 0
KDC1 180700Z 25003KT 03/M02 A3013 RMK A01 T00251020  RH  072%=      5-min Rain = 0
KDC1 180701Z 25003KT 02/M02 A3013 RMK A01 T00231021  RH  073%=      5-min Rain = 0
KDC1 180702Z 24003KT 02/M02 A3013 RMK A01 T00221021  RH  073%=      5-min Rain = 0
KDC1 180703Z 24004KT 02/M02 A3013 RMK A01 T00231020  RH  073%=      5-min Rain = 0
KDC1 180704Z 24004KT 02/M02 A3013 RMK A01 T00231020  RH  073%=      5-min Rain = 0
KDC1 180705Z 24004KT 02/M02 A3013 RMK A01 T00221021  RH  073%=      5-min Rain = 0
KDC1 180706Z 25004KT 02/M02 A3013 RMK A01 T00221021  RH  073%=      5-min Rain = 0
KDC1 180707Z 26004KT 02/M02 A3013 RMK A01 T00211021  RH  074%=      5-min Rain = 0
KDC1 180708Z 26003KT 02/M02 A3013 RMK A01 T00201022  RH  074%=      5-min Rain = 0
KDC1 180709Z 26003KT 02/M02 A3013 RMK A01 T00191023  RH  074%=      5-min Rain = 0
KDC1 180710Z 25003KT 02/M02 A3013 RMK A01 T00171024  RH  074%=      5-min Rain = 0
KDC1 180711Z 26004KT 02/M02 A3013 RMK A01 T00161023  RH  075%=      5-min Rain = 0
KDC1 180712Z 26004KT 02/M02 A3013 RMK A01 T00161023  RH  075%=      5-min Rain = 0
KDC1 180713Z 27004KT 02/M03 A3013 RMK A01 T00151025  RH  075%=      5-min Rain = 0
KDC1 180714Z 28004KT 01/M02 A3014 RMK A01 T00141024  RH  076%=      5-min Rain = 0
KDC1 180715Z 29004KT 01/M02 A3014 RMK A01 T00131024  RH  076%=      5-min Rain = 0
KDC1 180716Z 29004KT 01/M03 A3014 RMK A01 T00121026  RH  076%=      5-min Rain = 0
KDC1 180717Z 30004KT 01/M03 A3013 RMK A01 T00101027  RH  076%=      5-min Rain = 0
KDC1 180718Z 30004KT 01/M03 A3013 RMK A01 T00081028  RH  077%=      5-min Rain = 0
KDC1 180719Z 28004KT 01/M03 A3013 RMK A01 T00061029  RH  077%=      5-min Rain = 0
KDC1 180720Z 28005KT 01/M03 A3013 RMK A01 T00051028  RH  078%=      5-min Rain = 0
KDC1 180721Z 28005KT 01/M03 A3013 RMK A01 T00051027  RH  079%=      5-min Rain = 0
KDC1 180722Z 28006KT 01/M03 A3013 RMK A01 T00051027  RH  079%=      5-min Rain = 0
KDC1 180723Z 27006KT 01/M03 A3013 RMK A01 T00051025  RH  080%=      5-min Rain = 0
KDC1 180724Z 27006KT 01/M02 A3013 RMK A01 T00071023  RH  081%=      5-min Rain = 0
KDC1 180725Z 27005KT 01/M02 A3013 RMK A01 T00121019  RH  080%=      5-min Rain = 0
KDC1 180726Z 27005KT 02/M02 A3013 RMK A01 T00151018  RH  079%=      5-min Rain = 0
KDC1 180727Z 28004KT 02/M02 A3013 RMK A01 T00181018  RH  077%=      5-min Rain = 0
KDC1 180728Z 29005KT 02/M02 A3013 RMK A01 T00191019  RH  076%=      5-min Rain = 0
KDC1 180729Z 30005KT 02/M02 A3013 RMK A01 T00191020  RH  075%=      5-min Rain = 0
KDC1 180730Z 30006KT 02/M02 A3013 RMK A01 T00171023  RH  075%=      5-min Rain = 0
KDC1 180731Z 30006KT 01/M03 A3013 RMK A01 T00131026  RH  075%=      5-min Rain = 0
KDC1 180732Z 31006KT 01/M03 A3013 RMK A01 T00101028  RH  076%=      5-min Rain = 0
KDC1 180733Z 32006KT 01/M03 A3013 RMK A01 T00071029  RH  077%=      5-min Rain = 0
KDC1 180734Z 32005KT 01/M03 A3013 RMK A01 T00051028  RH  079%=      5-min Rain = 0
KDC1 180735Z 33005KT 00/M03 A3013 RMK A01 T00041027  RH  080%=      5-min Rain = 0
KDC1 180736Z 33005KT 00/M03 A3013 RMK A01 T00031026  RH  081%=      5-min Rain = 0
KDC1 180737Z 33005KT 00/M03 A3013 RMK A01 T00031025  RH  081%=      5-min Rain = 0
KDC1 180738Z 34004KT 00/M03 A3013 RMK A01 T00031025  RH  082%=      5-min Rain = 0
KDC1 180739Z 34004KT 00/M03 A3013 RMK A01 T00031025  RH  082%=      5-min Rain = 0
KDC1 180740Z 36004KT 00/M02 A3013 RMK A01 T00041024  RH  082%=      5-min Rain = 0
KDC1 180741Z 00005KT 01/M02 A3013 RMK A01 T00051023  RH  081%=      5-min Rain = 0
KDC1 180742Z 00004KT 01/M02 A3013 RMK A01 T00051023  RH  081%=      5-min Rain = 0
KDC1 180743Z 36004KT 01/M02 A3013 RMK A01 T00061024  RH  081%=      5-min Rain = 0
KDC1 180744Z 35003KT 01/M02 A3013 RMK A01 T00071023  RH  080%=      5-min Rain = 0
KDC1 180745Z 35003KT 01/M02 A3013 RMK A01 T00071023  RH  080%=      5-min Rain = 0
KDC1 180746Z 33003KT 01/M02 A3013 RMK A01 T00071023  RH  080%=      5-min Rain = 0
KDC1 180747Z 33002KT 01/M02 A3013 RMK A01 T00071024  RH  080%=      5-min Rain = 0
KDC1 180748Z 34002KT 01/M03 A3013 RMK A01 T00071025  RH  079%=      5-min Rain = 0
KDC1 180749Z 36003KT 01/M03 A3013 RMK A01 T00061026  RH  079%=      5-min Rain = 0
KDC1 180750Z 01003KT 01/M03 A3013 RMK A01 T00061026  RH  079%=      5-min Rain = 0
KDC1 180751Z 01002KT 01/M03 A3013 RMK A01 T00051027  RH  079%=      5-min Rain = 0
KDC1 180752Z 36001KT 01/M03 A3013 RMK A01 T00051026  RH  080%=      5-min Rain = 0
KDC1 180753Z 32002KT 01/M03 A3013 RMK A01 T00051026  RH  080%=      5-min Rain = 0
KDC1 180754Z 32002KT 01/M02 A3013 RMK A01 T00051024  RH  080%=      5-min Rain = 0
KDC1 180755Z 32002KT 01/M02 A3013 RMK A01 T00081022  RH  080%=      5-min Rain = 0
KDC1 180756Z 31003KT 01/M02 A3013 RMK A01 T00081024  RH  079%=      5-min Rain = 0
KDC1 180757Z 30003KT 01/M03 A3013 RMK A01 T00081026  RH  078%=      5-min Rain = 0
KDC1 180758Z 28003KT 01/M03 A3013 RMK A01 T00071026  RH  078%=      5-min Rain = 0
KDC1 180759Z 26004KT 01/M02 A3013 RMK A01 T00091023  RH  079%=      5-min Rain = 0
KDC1 180800Z 26004KT 01/M02 A3013 RMK A01 T00111022  RH  079%=      5-min Rain = 0
KDC1 180801Z 28004KT 01/M02 A3013 RMK A01 T00111020  RH  080%=      5-min Rain = 0
KDC1 180802Z 27004KT 01/M02 A3012 RMK A01 T00101020  RH  080%=      5-min Rain = 0
KDC1 180803Z 28004KT 01/M02 A3012 RMK A01 T00101019  RH  081%=      5-min Rain = 0
KDC1 180804Z 29003KT 01/M02 A3012 RMK A01 T00091019  RH  081%=      5-min Rain = 0
KDC1 180805Z 29003KT 01/M02 A3012 RMK A01 T00081020  RH  082%=      5-min Rain = 0
KDC1 180806Z 28004KT 01/M02 A3012 RMK A01 T00071020  RH  082%=      5-min Rain = 0
KDC1 180807Z 27004KT 01/M02 A3012 RMK A01 T00061021  RH  082%=      5-min Rain = 0
KDC1 180808Z 27005KT 01/M02 A3012 RMK A01 T00051022  RH  082%=      5-min Rain = 0
KDC1 180809Z 27005KT 00/M02 A3012 RMK A01 T00041022  RH  082%=      5-min Rain = 0
KDC1 180810Z 27006KT 00/M02 A3012 RMK A01 T00041023  RH  083%=      5-min Rain = 0
KDC1 180811Z 27006KT 00/M02 A3012 RMK A01 T00041022  RH  083%=      5-min Rain = 0
KDC1 180812Z 27006KT 00/M02 A3012 RMK A01 T00041023  RH  082%=      5-min Rain = 0
KDC1 180813Z 27006KT 00/M02 A3012 RMK A01 T00041024  RH  082%=      5-min Rain = 0
KDC1 180814Z 28006KT 00/M02 A3012 RMK A01 T00031024  RH  082%=      5-min Rain = 0
KDC1 180815Z 29006KT 00/M03 A3012 RMK A01 T00031025  RH  081%=      5-min Rain = 0
KDC1 180816Z 29006KT 00/M03 A3012 RMK A01 T00021026  RH  081%=      5-min Rain = 0
KDC1 180817Z 28006KT 00/M03 A3012 RMK A01 T00021026  RH  081%=      5-min Rain = 0
KDC1 180818Z 29006KT 00/M03 A3012 RMK A01 T00021027  RH  081%=      5-min Rain = 0
KDC1 180819Z 29006KT 00/M03 A3012 RMK A01 T00021027  RH  081%=      5-min Rain = 0
KDC1 180820Z 30006KT 00/M03 A3012 RMK A01 T00021026  RH  081%=      5-min Rain = 0
KDC1 180821Z 30007KT 00/M03 A3012 RMK A01 T00021026  RH  081%=      5-min Rain = 0
KDC1 180822Z 30007KT 00/M03 A3012 RMK A01 T00021026  RH  081%=      5-min Rain = 0
KDC1 180823Z 29007KT 00/M03 A3012 RMK A01 T00021026  RH  081%=      5-min Rain = 0
KDC1 180824Z 29007KT 00/M03 A3012 RMK A01 T00021026  RH  081%=      5-min Rain = 0
KDC1 180825Z 29006KT 00/M03 A3012 RMK A01 T00021026  RH  081%=      5-min Rain = 0
KDC1 180826Z 28006KT 00/M03 A3012 RMK A01 T00021026  RH  082%=      5-min Rain = 0
KDC1 180827Z 28007KT 00/M03 A3012 RMK A01 T00011025  RH  082%=      5-min Rain = 0
KDC1 180828Z 28007KT 00/M03 A3012 RMK A01 T00021025  RH  082%=      5-min Rain = 0
KDC1 180829Z 29006KT 00/M03 A3012 RMK A01 T00021025  RH  082%=      5-min Rain = 0
KDC1 180830Z 29006KT 00/M03 A3012 RMK A01 T00021025  RH  082%=      5-min Rain = 0
KDC1 180831Z 29006KT 00/M03 A3012 RMK A01 T00021025  RH  082%=      5-min Rain = 0
KDC1 180832Z 29006KT 00/M02 A3012 RMK A01 T00031024  RH  082%=      5-min Rain = 0
KDC1 180833Z 28006KT 00/M03 A3012 RMK A01 T00021025  RH  082%=      5-min Rain = 0
KDC1 180834Z 28006KT 00/M02 A3012 RMK A01 T00031024  RH  082%=      5-min Rain = 0
KDC1 180835Z 28007KT 00/M02 A3012 RMK A01 T00031024  RH  082%=      5-min Rain = 0
KDC1 180836Z 28007KT 00/M02 A3012 RMK A01 T00041023  RH  082%=      5-min Rain = 0
KDC1 180837Z 28007KT 00/M02 A3012 RMK A01 T00041023  RH  082%=      5-min Rain = 0
KDC1 180838Z 28008KT 00/M02 A3012 RMK A01 T00041023  RH  082%=      5-min Rain = 0
KDC1 180839Z 28007KT 00/M02 A3012 RMK A01 T00041023  RH  082%=      5-min Rain = 0
KDC1 180840Z 29007KT 01/M02 A3012 RMK A01 T00051023  RH  082%=      5-min Rain = 0
KDC1 180841Z 28006KT 01/M02 A3012 RMK A01 T00051023  RH  082%=      5-min Rain = 0
KDC1 180842Z 28006KT 01/M02 A3012 RMK A01 T00051023  RH  082%=      5-min Rain = 0
KDC1 180843Z 28006KT 01/M02 A3012 RMK A01 T00051023  RH  082%=      5-min Rain = 0
KDC1 180844Z 27006KT 01/M02 A3012 RMK A01 T00051022  RH  082%=      5-min Rain = 0
KDC1 180845Z 27006KT 01/M02 A3012 RMK A01 T00061021  RH  082%=      5-min Rain = 0
KDC1 180846Z 27005KT 01/M02 A3012 RMK A01 T00081020  RH  082%=      5-min Rain = 0
KDC1 180847Z 28005KT 01/M02 A3012 RMK A01 T00081020  RH  081%=      5-min Rain = 0
KDC1 180848Z 29005KT 01/M02 A3012 RMK A01 T00091020  RH  081%=      5-min Rain = 0
KDC1 180849Z 29004KT 01/M02 A3012 RMK A01 T00091021  RH  081%=      5-min Rain = 0
KDC1 180850Z 29005KT 01/M02 A3012 RMK A01 T00091021  RH  080%=      5-min Rain = 0
KDC1 180851Z 29006KT 01/M02 A3012 RMK A01 T00091021  RH  080%=      5-min Rain = 0
KDC1 180852Z 29006KT 01/M02 A3012 RMK A01 T00091021  RH  080%=      5-min Rain = 0
KDC1 180853Z 30006KT 01/M02 A3012 RMK A01 T00091022  RH  080%=      5-min Rain = 0
KDC1 180854Z 30006KT 01/M02 A3012 RMK A01 T00091021  RH  080%=      5-min Rain = 0
KDC1 180855Z 30006KT 01/M02 A3012 RMK A01 T00091021  RH  081%=      5-min Rain = 0
KDC1 180856Z 30006KT 01/M02 A3012 RMK A01 T00091021  RH  081%=      5-min Rain = 0
KDC1 180857Z 30007KT 01/M02 A3012 RMK A01 T00091020  RH  081%=      5-min Rain = 0
KDC1 180858Z 30006KT 01/M02 A3012 RMK A01 T00101020  RH  081%=      5-min Rain = 0
KDC1 180859Z 31006KT 01/M02 A3012 RMK A01 T00111019  RH  080%=      5-min Rain = 0
KDC1 180900Z 30005KT 01/M02 A3012 RMK A01 T00121019  RH  080%=      5-min Rain = 0
KDC1 180901Z 30005KT 01/M02 A3012 RMK A01 T00131018  RH  080%=      5-min Rain = 0
KDC1 180902Z 28005KT 01/M02 A3012 RMK A01 T00131019  RH  079%=      5-min Rain = 0
KDC1 180903Z 28005KT 01/M02 A3012 RMK A01 T00131019  RH  079%=      5-min Rain = 0
KDC1 180904Z 28005KT 01/M02 A3013 RMK A01 T00131019  RH  079%=      5-min Rain = 0
KDC1 180905Z 28004KT 01/M02 A3013 RMK A01 T00141018  RH  079%=      5-min Rain = 0
KDC1 180906Z 28004KT 01/M02 A3013 RMK A01 T00141018  RH  079%=      5-min Rain = 0
KDC1 180907Z 29003KT 01/M02 A3013 RMK A01 T00141018  RH  079%=      5-min Rain = 0
KDC1 180908Z 31002KT 01/M02 A3013 RMK A01 T00141018  RH  079%=      5-min Rain = 0
KDC1 180909Z 31002KT 01/M02 A3013 RMK A01 T00131019  RH  079%=      5-min Rain = 0
KDC1 180910Z 34000KT 01/M02 A3013 RMK A01 T00131020  RH  079%=      5-min Rain = 0
KDC1 180911Z 00000KT 01/M02 A3013 RMK A01 T00131020  RH  079%=      5-min Rain = 0
KDC1 180912Z 20001KT 01/M02 A3013 RMK A01 T00121020  RH  079%=      5-min Rain = 0
KDC1 180913Z 19003KT 01/M02 A3013 RMK A01 T00121019  RH  080%=      5-min Rain = 0
KDC1 180914Z 19003KT 01/M02 A3013 RMK A01 T00111020  RH  080%=      5-min Rain = 0
KDC1 180915Z 22002KT 01/M02 A3013 RMK A01 T00111018  RH  081%=      5-min Rain = 0
KDC1 180916Z 23001KT 01/M02 A3013 RMK A01 T00111018  RH  081%=      5-min Rain = 0
KDC1 180917Z 00000KT 01/M02 A3013 RMK A01 T00111018  RH  081%=      5-min Rain = 0
KDC1 180918Z 22001KT 01/M02 A3013 RMK A01 T00111018  RH  081%=      5-min Rain = 0
KDC1 180919Z 21002KT 01/M02 A3013 RMK A01 T00111018  RH  081%=      5-min Rain = 0
KDC1 180920Z 19003KT 01/M02 A3013 RMK A01 T00101019  RH  081%=      5-min Rain = 0
KDC1 180921Z 18001KT 01/M02 A3013 RMK A01 T00101020  RH  080%=      5-min Rain = 0
KDC1 180922Z 19001KT 01/M02 A3013 RMK A01 T00081023  RH  080%=      5-min Rain = 0
KDC1 180923Z 20001KT 01/M02 A3013 RMK A01 T00061023  RH  081%=      5-min Rain = 0
KDC1 180924Z 21001KT 01/M02 A3013 RMK A01 T00051023  RH  081%=      5-min Rain = 0
KDC1 180925Z 23002KT 01/M02 A3013 RMK A01 T00051023  RH  081%=      5-min Rain = 0
KDC1 180926Z 25002KT 01/M02 A3012 RMK A01 T00051024  RH  081%=      5-min Rain = 0
KDC1 180927Z 24002KT 01/M02 A3012 RMK A01 T00051024  RH  081%=      5-min Rain = 0
KDC1 180928Z 23002KT 00/M02 A3012 RMK A01 T00041024  RH  081%=      5-min Rain = 0
KDC1 180929Z 22002KT 00/M02 A3012 RMK A01 T00041024  RH  081%=      5-min Rain = 0
KDC1 180930Z 23001KT 00/M02 A3012 RMK A01 T00041024  RH  081%=      5-min Rain = 0
KDC1 180931Z 23002KT 00/M02 A3012 RMK A01 T00041024  RH  081%=      5-min Rain = 0
KDC1 180932Z 22002KT 00/M03 A3012 RMK A01 T00041025  RH  081%=      5-min Rain = 0
KDC1 180933Z 21002KT 00/M03 A3012 RMK A01 T00041025  RH  081%=      5-min Rain = 0
KDC1 180934Z 21002KT 01/M03 A3012 RMK A01 T00051026  RH  080%=      5-min Rain = 0
KDC1 180935Z 23003KT 01/M03 A3012 RMK A01 T00051026  RH  080%=      5-min Rain = 0
KDC1 180936Z 25003KT 01/M03 A3012 RMK A01 T00051025  RH  080%=      5-min Rain = 0
KDC1 180937Z 27003KT 01/M03 A3012 RMK A01 T00051025  RH  080%=      5-min Rain = 0
KDC1 180938Z 28003KT 01/M03 A3012 RMK A01 T00061025  RH  080%=      5-min Rain = 0
KDC1 180939Z 27003KT 01/M03 A3012 RMK A01 T00061026  RH  079%=      5-min Rain = 0
KDC1 180940Z 28003KT 01/M03 A3011 RMK A01 T00061026  RH  079%=      5-min Rain = 0
KDC1 180941Z 28004KT 01/M03 A3011 RMK A01 T00061026  RH  079%=      5-min Rain = 0
KDC1 180942Z 27004KT 01/M03 A3012 RMK A01 T00061027  RH  079%=      5-min Rain = 0
KDC1 180943Z 26004KT 01/M03 A3012 RMK A01 T00051028  RH  079%=      5-min Rain = 0
KDC1 180944Z 27004KT 00/M03 A3012 RMK A01 T00021031  RH  078%=      5-min Rain = 0
KDC1 180945Z 28003KT 00/03 A3012 RMK A01 T00-00-33  RH  079%=      5-min Rain = 0
KDC1 180946Z 28002KT M00/M03 A3012 RMK A01 T10021033  RH  079%=      5-min Rain = 0
KDC1 180947Z 27002KT M00/M03 A3012 RMK A01 T10031033  RH  080%=      5-min Rain = 0
KDC1 180948Z 27002KT M00/M03 A3012 RMK A01 T10031033  RH  080%=      5-min Rain = 0
KDC1 180949Z 29002KT M00/M03 A3012 RMK A01 T10041033  RH  081%=      5-min Rain = 0
KDC1 180950Z 29003KT M00/M03 A3011 RMK A01 T10041033  RH  081%=      5-min Rain = 0
KDC1 180951Z 28002KT M00/M03 A3011 RMK A01 T10041033  RH  081%=      5-min Rain = 0
KDC1 180952Z 28002KT M00/M03 A3011 RMK A01 T10021030  RH  081%=      5-min Rain = 0
KDC1 180953Z 27003KT M00/M03 A3011 RMK A01 T10011031  RH  080%=      5-min Rain = 0
KDC1 180954Z 27003KT M00/M03 A3011 RMK A01 T10011032  RH  079%=      5-min Rain = 0
KDC1 180955Z 27003KT M00/M03 A3011 RMK A01 T10011033  RH  079%=      5-min Rain = 0
KDC1 180956Z 28003KT M00/M03 A3011 RMK A01 T10011033  RH  079%=      5-min Rain = 0
KDC1 180957Z 29003KT M00/M03 A3011 RMK A01 T10011033  RH  079%=      5-min Rain = 0
KDC1 180958Z 29003KT M00/M03 A3011 RMK A01 T10021034  RH  079%=      5-min Rain = 0
KDC1 180959Z 29003KT M00/M03 A3011 RMK A01 T10031033  RH  080%=      5-min Rain = 0
KDC1 181000Z 29004KT M00/M03 A3011 RMK A01 T10021032  RH  080%=      5-min Rain = 0
KDC1 181001Z 29004KT M00/M03 A3011 RMK A01 T10011030  RH  080%=      5-min Rain = 0
KDC1 181002Z 29003KT 00/M03 A3011 RMK A01 T00011030  RH  080%=      5-min Rain = 0
KDC1 181003Z 29003KT 00/M03 A3011 RMK A01 T00011031  RH  079%=      5-min Rain = 0
KDC1 181004Z 28003KT 00/03 A3011 RMK A01 T00-00-32  RH  079%=      5-min Rain = 0
KDC1 181005Z 27004KT M00/M03 A3011 RMK A01 T10011034  RH  079%=      5-min Rain = 0
KDC1 181006Z 28003KT M00/M03 A3011 RMK A01 T10021034  RH  079%=      5-min Rain = 0
KDC1 181007Z 29004KT M00/M03 A3011 RMK A01 T10021033  RH  080%=      5-min Rain = 0
KDC1 181008Z 29004KT M00/M03 A3011 RMK A01 T10021033  RH  079%=      5-min Rain = 0
KDC1 181009Z 30004KT M00/M03 A3011 RMK A01 T10021034  RH  079%=      5-min Rain = 0
KDC1 181010Z 30003KT M00/M04 A3011 RMK A01 T10031035  RH  079%=      5-min Rain = 0
KDC1 181011Z 29003KT M00/M04 A3011 RMK A01 T10041037  RH  079%=      5-min Rain = 0
KDC1 181012Z 29003KT M00/M04 A3011 RMK A01 T10041035  RH  080%=      5-min Rain = 0
KDC1 181013Z 30003KT M00/M03 A3011 RMK A01 T10021032  RH  080%=      5-min Rain = 0
KDC1 181014Z 30003KT M00/M03 A3011 RMK A01 T10021033  RH  080%=      5-min Rain = 0
KDC1 181015Z 31003KT M00/M03 A3011 RMK A01 T10021034  RH  079%=      5-min Rain = 0
KDC1 181016Z 31004KT M00/M04 A301 RMK A01 T10031035  RH  079%=      5-min Rain = 0
KDC1 181017Z 31003KT M01/M04 A301 RMK A01 T10051038  RH  079%=      5-min Rain = 0
KDC1 181018Z 31003KT M01/M04 A301 RMK A01 T10081039  RH  079%=      5-min Rain = 0
KDC1 181019Z 30003KT M01/M04 A3011 RMK A01 T10091040  RH  080%=      5-min Rain = 0
KDC1 181020Z 30003KT M01/M04 A3011 RMK A01 T10101038  RH  081%=      5-min Rain = 0
KDC1 181021Z 32002KT M01/M04 A301 RMK A01 T10091035  RH  082%=      5-min Rain = 0
KDC1 181022Z 33003KT M01/M03 A301 RMK A01 T10081034  RH  082%=      5-min Rain = 0
KDC1 181023Z 33003KT M01/M03 A3011 RMK A01 T10071034  RH  082%=      5-min Rain = 0
KDC1 181024Z 32003KT M01/M04 A3011 RMK A01 T10071035  RH  082%=      5-min Rain = 0
KDC1 181025Z 32003KT M01/M04 A3011 RMK A01 T10071035  RH  081%=      5-min Rain = 0
KDC1 181026Z 34003KT M01/M04 A3011 RMK A01 T10081036  RH  081%=      5-min Rain = 0
KDC1 181027Z 35004KT M01/M04 A3011 RMK A01 T10081036  RH  082%=      5-min Rain = 0
KDC1 181028Z 00004KT M01/M04 A3011 RMK A01 T10101038  RH  081%=      5-min Rain = 0
KDC1 181029Z 00003KT M01/M04 A3011 RMK A01 T10121040  RH  081%=      5-min Rain = 0
KDC1 181030Z 00003KT M01/M04 A3011 RMK A01 T10131041  RH  081%=      5-min Rain = 0
KDC1 181031Z 00002KT M01/M04 A3011 RMK A01 T10131040  RH  082%=      5-min Rain = 0
KDC1 181032Z 00002KT M01/M04 A3011 RMK A01 T10141040  RH  083%=      5-min Rain = 0
KDC1 181033Z 01001KT M01/M04 A3011 RMK A01 T10141038  RH  084%=      5-min Rain = 0
KDC1 181034Z 01002KT M01/M04 A3011 RMK A01 T10131035  RH  085%=      5-min Rain = 0
KDC1 181035Z 00002KT M01/M03 A3011 RMK A01 T10101032  RH  085%=      5-min Rain = 0
KDC1 181036Z 00002KT M01/M03 A3011 RMK A01 T10081031  RH  084%=      5-min Rain = 0
KDC1 181037Z 00003KT M01/M03 A301 RMK A01 T10071031  RH  084%=      5-min Rain = 0
KDC1 181038Z 01002KT M01/M03 A3011 RMK A01 T10071032  RH  084%=      5-min Rain = 0
KDC1 181039Z 00002KT M01/M03 A3011 RMK A01 T10081032  RH  083%=      5-min Rain = 0
KDC1 181040Z 00002KT M01/M03 A3011 RMK A01 T10081032  RH  083%=      5-min Rain = 0
KDC1 181041Z 01002KT M01/M03 A3011 RMK A01 T10081032  RH  084%=      5-min Rain = 0
KDC1 181042Z 01003KT M01/M03 A3011 RMK A01 T10071032  RH  083%=      5-min Rain = 0
KDC1 181043Z 01002KT M01/M03 A301 RMK A01 T10071032  RH  083%=      5-min Rain = 0
KDC1 181044Z 01002KT M01/M03 A3011 RMK A01 T10071034  RH  082%=      5-min Rain = 0
KDC1 181045Z 00002KT M01/M04 A3011 RMK A01 T10091036  RH  082%=      5-min Rain = 0
KDC1 181046Z 00002KT M01/M04 A3011 RMK A01 T10101035  RH  083%=      5-min Rain = 0
KDC1 181047Z 00002KT M01/M03 A3011 RMK A01 T10091033  RH  084%=      5-min Rain = 0
KDC1 181048Z 00003KT M01/M03 A301 RMK A01 T10091032  RH  084%=      5-min Rain = 0
KDC1 181049Z 00003KT M01/M03 A301 RMK A01 T10091033  RH  084%=      5-min Rain = 0
KDC1 181050Z 36003KT M01/M04 A3011 RMK A01 T10091035  RH  083%=      5-min Rain = 0
KDC1 181051Z 36003KT M01/M04 A3011 RMK A01 T10101036  RH  083%=      5-min Rain = 0
KDC1 181052Z 35003KT M01/M04 A3011 RMK A01 T10121037  RH  083%=      5-min Rain = 0
KDC1 181053Z 36002KT M01/M04 A3011 RMK A01 T10131039  RH  083%=      5-min Rain = 0
KDC1 181054Z 00002KT M01/M04 A3011 RMK A01 T10141037  RH  084%=      5-min Rain = 0
KDC1 181055Z 00001KT M01/M03 A3011 RMK A01 T10131033  RH  086%=      5-min Rain = 0
KDC1 181056Z 36001KT M01/M03 A301 RMK A01 T10111030  RH  087%=      5-min Rain = 0
KDC1 181057Z 34001KT M01/M03 A301 RMK A01 T10091029  RH  086%=      5-min Rain = 0
KDC1 181058Z 34001KT M01/M03 A301 RMK A01 T10091030  RH  086%=      5-min Rain = 0
KDC1 181059Z 34001KT M01/M03 A3011 RMK A01 T10091032  RH  085%=      5-min Rain = 0
KDC1 181100Z 33001KT M01/M03 A3011 RMK A01 T10101033  RH  084%=      5-min Rain = 0
KDC1 181101Z 33001KT M01/M03 A301 RMK A01 T10111033  RH  085%=      5-min Rain = 0
KDC1 181102Z 34001KT M01/M03 A301 RMK A01 T10121034  RH  085%=      5-min Rain = 0
KDC1 181103Z 35002KT M01/M04 A301 RMK A01 T10131035  RH  085%=      5-min Rain = 0
KDC1 181104Z 34003KT M01/M04 A301 RMK A01 T10141036  RH  085%=      5-min Rain = 0
KDC1 181105Z 34003KT M02/M04 A301 RMK A01 T10151037  RH  085%=      5-min Rain = 0
KDC1 181106Z 33003KT M02/M04 A301 RMK A01 T10161038  RH  085%=      5-min Rain = 0
KDC1 181107Z 33003KT M02/M04 A301 RMK A01 T10161038  RH  085%=      5-min Rain = 0
KDC1 181108Z 33004KT M02/M04 A301 RMK A01 T10161038  RH  085%=      5-min Rain = 0
KDC1 181109Z 32003KT M02/M04 A301 RMK A01 T10161038  RH  085%=      5-min Rain = 0
KDC1 181110Z 32003KT M02/M04 A301 RMK A01 T10161038  RH  085%=      5-min Rain = 0
KDC1 181111Z 31002KT M02/M04 A301 RMK A01 T10171038  RH  086%=      5-min Rain = 0
KDC1 181112Z 31002KT M02/M04 A301 RMK A01 T10171036  RH  086%=      5-min Rain = 0
KDC1 181113Z 31002KT M02/M03 A301 RMK A01 T10151034  RH  087%=      5-min Rain = 0
KDC1 181114Z 31003KT M01/M03 A301 RMK A01 T10121030  RH  088%=      5-min Rain = 0
KDC1 181115Z 31003KT M01/M03 A301 RMK A01 T10101029  RH  087%=      5-min Rain = 0
KDC1 181116Z 30003KT M01/M03 A301 RMK A01 T10091029  RH  086%=      5-min Rain = 0
KDC1 181117Z 29003KT M01/M03 A301 RMK A01 T10091032  RH  085%=      5-min Rain = 0
KDC1 181118Z 31003KT M01/M04 A301 RMK A01 T10111035  RH  084%=      5-min Rain = 0
KDC1 181119Z 31003KT M01/M04 A301 RMK A01 T10131037  RH  084%=      5-min Rain = 0
KDC1 181120Z 31003KT M01/M04 A301 RMK A01 T10141037  RH  084%=      5-min Rain = 0
KDC1 181121Z 31003KT M02/M04 A301 RMK A01 T10151038  RH  084%=      5-min Rain = 0
KDC1 181122Z 31003KT M02/M04 A301 RMK A01 T10171040  RH  084%=      5-min Rain = 0
KDC1 181123Z 31003KT M02/M04 A301 RMK A01 T10181041  RH  084%=      5-min Rain = 0
KDC1 181124Z 30003KT M02/M04 A301 RMK A01 T10191041  RH  085%=      5-min Rain = 0
KDC1 181125Z 31003KT M02/M04 A301 RMK A01 T10191041  RH  085%=      5-min Rain = 0
KDC1 181126Z 31003KT M02/M04 A301 RMK A01 T10191040  RH  086%=      5-min Rain = 0
KDC1 181127Z 32003KT M02/M04 A301 RMK A01 T10191039  RH  086%=      5-min Rain = 0
KDC1 181128Z 33003KT M02/M04 A301 RMK A01 T10191039  RH  087%=      5-min Rain = 0
KDC1 181129Z 32003KT M02/M04 A301 RMK A01 T10181037  RH  087%=      5-min Rain = 0
KDC1 181130Z 33002KT M02/M04 A301 RMK A01 T10181037  RH  087%=      5-min Rain = 0
KDC1 181131Z 33002KT M02/M04 A301 RMK A01 T10171037  RH  086%=      5-min Rain = 0
KDC1 181132Z 33002KT M02/M04 A301 RMK A01 T10171037  RH  086%=      5-min Rain = 0
KDC1 181133Z 33002KT M02/M04 A301 RMK A01 T10161036  RH  086%=      5-min Rain = 0
KDC1 181134Z 32002KT M02/M03 A301 RMK A01 T10151034  RH  087%=      5-min Rain = 0
KDC1 181135Z 32003KT M01/M03 A301 RMK A01 T10141034  RH  086%=      5-min Rain = 0
KDC1 181136Z 32003KT M01/M03 A301 RMK A01 T10131034  RH  086%=      5-min Rain = 0
KDC1 181137Z 32003KT M01/M04 A301 RMK A01 T10141035  RH  085%=      5-min Rain = 0
KDC1 181138Z 32003KT M01/M04 A301 RMK A01 T10141036  RH  085%=      5-min Rain = 0
KDC1 181139Z 33003KT M01/M04 A301 RMK A01 T10141036  RH  085%=      5-min Rain = 0
KDC1 181140Z 32002KT M01/M04 A301 RMK A01 T10141035  RH  086%=      5-min Rain = 0
KDC1 181141Z 33003KT M01/M03 A301 RMK A01 T10131032  RH  087%=      5-min Rain = 0
KDC1 181142Z 33003KT M01/M03 A301 RMK A01 T10111028  RH  088%=      5-min Rain = 0
KDC1 181143Z 34003KT M01/M03 A301 RMK A01 T10101028  RH  088%=      5-min Rain = 0
KDC1 181144Z 35003KT M01/M03 A301 RMK A01 T10091028  RH  087%=      5-min Rain = 0
KDC1 181145Z 00003KT M01/M03 A301 RMK A01 T10101030  RH  087%=      5-min Rain = 0
KDC1 181146Z 00002KT M01/M03 A301 RMK A01 T10101030  RH  086%=      5-min Rain = 0
KDC1 181147Z 36002KT M01/M03 A301 RMK A01 T10101030  RH  087%=      5-min Rain = 0
KDC1 181148Z 36003KT M01/M03 A301 RMK A01 T10101030  RH  086%=      5-min Rain = 0
KDC1 181149Z 35003KT M01/M03 A301 RMK A01 T10091031  RH  085%=      5-min Rain = 0
KDC1 181150Z 33003KT M01/M03 A301 RMK A01 T10091032  RH  084%=      5-min Rain = 0
KDC1 181151Z 33003KT M01/M03 A301 RMK A01 T10091033  RH  084%=      5-min Rain = 0
KDC1 181152Z 32003KT M01/M03 A301 RMK A01 T10091034  RH  083%=      5-min Rain = 0
KDC1 181153Z 32003KT M01/M04 A301 RMK A01 T10101036  RH  083%=      5-min Rain = 0
KDC1 181154Z 32003KT M01/M04 A301 RMK A01 T10121037  RH  083%=      5-min Rain = 0
KDC1 181155Z 32003KT M01/M04 A301 RMK A01 T10121036  RH  084%=      5-min Rain = 0
KDC1 181156Z 32003KT M01/M04 A301 RMK A01 T10121036  RH  084%=      5-min Rain = 0
KDC1 181157Z 32003KT M01/M04 A301 RMK A01 T10121036  RH  084%=      5-min Rain = 0
KDC1 181158Z 33003KT M01/M04 A301 RMK A01 T10131037  RH  084%=      5-min Rain = 0
KDC1 181159Z 33003KT M01/M04 A301 RMK A01 T10131036  RH  084%=      5-min Rain = 0
KDC1 181200Z 31003KT M01/M04 A3011 RMK A01 T10131037  RH  084%=      5-min Rain = 0
KDC1 181201Z 31003KT M01/M04 A3011 RMK A01 T10141038  RH  084%=      5-min Rain = 0
KDC1 181202Z 31002KT M01/M04 A3011 RMK A01 T10141037  RH  084%=      5-min Rain = 0
KDC1 181203Z 31003KT M01/M04 A3011 RMK A01 T10121035  RH  085%=      5-min Rain = 0
KDC1 181204Z 31003KT M01/M03 A3011 RMK A01 T10091032  RH  085%=      5-min Rain = 0
KDC1 181205Z 31003KT M01/M03 A3011 RMK A01 T10071031  RH  084%=      5-min Rain = 0
KDC1 181206Z 32003KT M01/M03 A3011 RMK A01 T10071033  RH  083%=      5-min Rain = 0
KDC1 181207Z 31003KT M01/M03 A3011 RMK A01 T10081034  RH  082%=      5-min Rain = 0
KDC1 181208Z 30003KT M01/M04 A3011 RMK A01 T10091035  RH  083%=      5-min Rain = 0
KDC1 181209Z 30003KT M01/M03 A3011 RMK A01 T10091034  RH  083%=      5-min Rain = 0
KDC1 181210Z 32004KT M01/M03 A3011 RMK A01 T10091034  RH  083%=      5-min Rain = 0
KDC1 181211Z 32004KT M01/M03 A3011 RMK A01 T10091034  RH  083%=      5-min Rain = 0
KDC1 181212Z 32004KT M01/M04 A3011 RMK A01 T10101036  RH  083%=      5-min Rain = 0
KDC1 181213Z 33004KT M01/M04 A3011 RMK A01 T10121038  RH  083%=      5-min Rain = 0
KDC1 181214Z 33004KT M01/M04 A301 RMK A01 T10141040  RH  083%=      5-min Rain = 0
KDC1 181215Z 33003KT M02/M04 A301 RMK A01 T10151040  RH  083%=      5-min Rain = 0
KDC1 181216Z 32003KT M02/M04 A301 RMK A01 T10161041  RH  083%=      5-min Rain = 0
KDC1 181217Z 31003KT M02/M04 A3011 RMK A01 T10171041  RH  084%=      5-min Rain = 0
KDC1 181218Z 32003KT M02/M04 A3011 RMK A01 T10161039  RH  085%=      5-min Rain = 0
KDC1 181219Z 33003KT M02/M04 A3011 RMK A01 T10151036  RH  085%=      5-min Rain = 0
KDC1 181220Z 32003KT M01/M03 A3011 RMK A01 T10131034  RH  086%=      5-min Rain = 0
KDC1 181221Z 32003KT M01/M03 A3011 RMK A01 T10111033  RH  085%=      5-min Rain = 0
KDC1 181222Z 31003KT M01/M03 A3011 RMK A01 T10101034  RH  084%=      5-min Rain = 0
KDC1 181223Z 31003KT M01/M04 A3011 RMK A01 T10101035  RH  084%=      5-min Rain = 0
KDC1 181224Z 31003KT M01/M04 A3011 RMK A01 T10111035  RH  083%=      5-min Rain = 0
KDC1 181225Z 32003KT M01/M04 A3011 RMK A01 T10111036  RH  083%=      5-min Rain = 0
KDC1 181226Z 32003KT M01/M04 A3011 RMK A01 T10121037  RH  083%=      5-min Rain = 0
KDC1 181227Z 32003KT M01/M04 A3011 RMK A01 T10131038  RH  083%=      5-min Rain = 0
KDC1 181228Z 30003KT M01/M04 A3011 RMK A01 T10141038  RH  083%=      5-min Rain = 0
KDC1 181229Z 29003KT M01/M04 A3011 RMK A01 T10141037  RH  084%=      5-min Rain = 0
KDC1 181230Z 30002KT M01/M04 A3011 RMK A01 T10131036  RH  085%=      5-min Rain = 0
KDC1 181231Z 31002KT M01/M03 A3011 RMK A01 T10111033  RH  085%=      5-min Rain = 0
KDC1 181232Z 31003KT M01/M03 A3011 RMK A01 T10101033  RH  085%=      5-min Rain = 0
KDC1 181233Z 32003KT M01/M03 A3011 RMK A01 T10101034  RH  084%=      5-min Rain = 0
KDC1 181234Z 33003KT M01/M04 A3011 RMK A01 T10121037  RH  083%=      5-min Rain = 0
KDC1 181235Z 33004KT M01/M04 A3011 RMK A01 T10141039  RH  083%=      5-min Rain = 0
KDC1 181236Z 33004KT M01/M04 A3011 RMK A01 T10141039  RH  083%=      5-min Rain = 0
KDC1 181237Z 31004KT M02/M04 A3011 RMK A01 T10151039  RH  084%=      5-min Rain = 0
KDC1 181238Z 30005KT M02/M04 A3011 RMK A01 T10151038  RH  084%=      5-min Rain = 0
KDC1 181239Z 30004KT M02/M04 A3011 RMK A01 T10151038  RH  084%=      5-min Rain = 0
KDC1 181240Z 31004KT M02/M04 A3011 RMK A01 T10151038  RH  085%=      5-min Rain = 0
KDC1 181241Z 32003KT M02/M04 A3011 RMK A01 T10151037  RH  085%=      5-min Rain = 0
KDC1 181242Z 31003KT M01/M04 A3011 RMK A01 T10141035  RH  085%=      5-min Rain = 0
KDC1 181243Z 32003KT M01/M04 A3011 RMK A01 T10131036  RH  085%=      5-min Rain = 0
KDC1 181244Z 31004KT M01/M04 A3011 RMK A01 T10131036  RH  084%=      5-min Rain = 0
KDC1 181245Z 30004KT M01/M04 A3011 RMK A01 T10131037  RH  084%=      5-min Rain = 0
KDC1 181246Z 29005KT M01/M04 A3011 RMK A01 T10131037  RH  084%=      5-min Rain = 0
KDC1 181247Z 29005KT M01/M04 A3011 RMK A01 T10131036  RH  084%=      5-min Rain = 0
KDC1 181248Z 28004KT M01/M04 A3011 RMK A01 T10131037  RH  084%=      5-min Rain = 0
KDC1 181249Z 28004KT M01/M04 A3011 RMK A01 T10121035  RH  085%=      5-min Rain = 0
KDC1 181250Z 28004KT M01/M03 A3011 RMK A01 T10101031  RH  085%=      5-min Rain = 0
KDC1 181251Z 29005KT M01/M03 A3011 RMK A01 T10091031  RH  085%=      5-min Rain = 0
KDC1 181252Z 29005KT M01/M03 A3011 RMK A01 T10081032  RH  084%=      5-min Rain = 0
KDC1 181253Z 30005KT M01/M03 A3011 RMK A01 T10081033  RH  083%=      5-min Rain = 0
KDC1 181254Z 31005KT M01/M04 A3011 RMK A01 T10101035  RH  083%=      5-min Rain = 0
KDC1 181255Z 31004KT M01/M04 A3011 RMK A01 T10111037  RH  082%=      5-min Rain = 0
KDC1 181256Z 31005KT M01/M04 A3011 RMK A01 T10131039  RH  082%=      5-min Rain = 0
KDC1 181257Z 31005KT M01/M04 A3011 RMK A01 T10141039  RH  083%=      5-min Rain = 0
KDC1 181258Z 30005KT M01/M04 A3012 RMK A01 T10141038  RH  084%=      5-min Rain = 0
KDC1 181259Z 29004KT M01/M04 A3012 RMK A01 T10141037  RH  085%=      5-min Rain = 0
KDC1 181300Z 28004KT M01/M03 A3012 RMK A01 T10131033  RH  086%=      5-min Rain = 0
KDC1 181301Z 28005KT M01/M03 A3012 RMK A01 T10101030  RH  086%=      5-min Rain = 0
KDC1 181302Z 27004KT M01/M03 A3012 RMK A01 T10081028  RH  086%=      5-min Rain = 0
KDC1 181303Z 27004KT M01/M03 A3012 RMK A01 T10061027  RH  086%=      5-min Rain = 0
KDC1 181304Z 27004KT M01/M03 A3012 RMK A01 T10051026  RH  086%=      5-min Rain = 0
KDC1 181305Z 27004KT M00/M03 A3012 RMK A01 T10031025  RH  085%=      5-min Rain = 0
KDC1 181306Z 27005KT M00/M03 A3012 RMK A01 T10021026  RH  084%=      5-min Rain = 0
KDC1 181307Z 27005KT M00/M03 A3012 RMK A01 T10021027  RH  083%=      5-min Rain = 0
KDC1 181308Z 26005KT M00/M03 A3012 RMK A01 T10021028  RH  083%=      5-min Rain = 0
KDC1 181309Z 26005KT M00/M03 A3012 RMK A01 T10031028  RH  083%=      5-min Rain = 0
KDC1 181310Z 26005KT M00/M03 A3012 RMK A01 T10031028  RH  083%=      5-min Rain = 0
KDC1 181311Z 27005KT M00/M03 A3012 RMK A01 T10031028  RH  083%=      5-min Rain = 0
KDC1 181312Z 27005KT M00/M03 A3012 RMK A01 T10031028  RH  083%=      5-min Rain = 0
KDC1 181313Z 28005KT M00/M03 A3012 RMK A01 T10031028  RH  083%=      5-min Rain = 0
KDC1 181314Z 28005KT M00/M03 A3012 RMK A01 T10031029  RH  083%=      5-min Rain = 0
KDC1 181315Z 29004KT M00/M03 A3012 RMK A01 T10031029  RH  083%=      5-min Rain = 0
KDC1 181316Z 29005KT M00/M03 A3013 RMK A01 T10031029  RH  083%=      5-min Rain = 0
KDC1 181317Z 28004KT M00/M03 A3012 RMK A01 T10041030  RH  083%=      5-min Rain = 0
KDC1 181318Z 28004KT M01/M03 A3012 RMK A01 T10051031  RH  083%=      5-min Rain = 0
KDC1 181319Z 29005KT M01/M03 A3012 RMK A01 T10061031  RH  083%=      5-min Rain = 0
KDC1 181320Z 29005KT M01/M03 A3012 RMK A01 T10061032  RH  083%=      5-min Rain = 0
KDC1 181321Z 29005KT M01/M03 A3013 RMK A01 T10071032  RH  083%=      5-min Rain = 0
KDC1 181322Z 30006KT M01/M03 A3013 RMK A01 T10071032  RH  083%=      5-min Rain = 0
KDC1 181323Z 30005KT M01/M03 A3013 RMK A01 T10071032  RH  083%=      5-min Rain = 0
KDC1 181324Z 30006KT M01/M03 A3013 RMK A01 T10081033  RH  083%=      5-min Rain = 0
KDC1 181325Z 31005KT M01/M03 A3013 RMK A01 T10081033  RH  083%=      5-min Rain = 0
KDC1 181326Z 30005KT M01/M03 A3013 RMK A01 T10091033  RH  084%=      5-min Rain = 0
KDC1 181327Z 30005KT M01/M03 A3013 RMK A01 T10091033  RH  084%=      5-min Rain = 0
KDC1 181328Z 30005KT M01/M03 A3013 RMK A01 T10091033  RH  084%=      5-min Rain = 0
KDC1 181329Z 31005KT M01/M03 A3013 RMK A01 T10091033  RH  084%=      5-min Rain = 0
KDC1 181330Z 30006KT M01/M03 A3013 RMK A01 T10091033  RH  084%=      5-min Rain = 0
KDC1 181331Z 30005KT M01/M03 A3013 RMK A01 T10091033  RH  084%=      5-min Rain = 0
KDC1 181332Z 31005KT M01/M03 A3013 RMK A01 T10101033  RH  084%=      5-min Rain = 0
KDC1 181333Z 30005KT M01/M03 A3013 RMK A01 T10101034  RH  084%=      5-min Rain = 0
KDC1 181334Z 30005KT M01/M03 A3013 RMK A01 T10111034  RH  084%=      5-min Rain = 0
KDC1 181335Z 30005KT M01/M03 A3013 RMK A01 T10111033  RH  085%=      5-min Rain = 0
KDC1 181336Z 29005KT M01/M03 A3013 RMK A01 T10111033  RH  085%=      5-min Rain = 0
KDC1 181337Z 29005KT M01/M03 A3013 RMK A01 T10101031  RH  086%=      5-min Rain = 0
KDC1 181338Z 29006KT M01/M03 A3013 RMK A01 T10091030  RH  086%=      5-min Rain = 0
KDC1 181339Z 29006KT M01/M03 A3013 RMK A01 T10081029  RH  085%=      5-min Rain = 0
KDC1 181340Z 29005KT M01/M03 A3013 RMK A01 T10071029  RH  085%=      5-min Rain = 0
KDC1 181341Z 29005KT M01/M03 A3013 RMK A01 T10061028  RH  085%=      5-min Rain = 0
KDC1 181342Z 28006KT M01/M03 A3013 RMK A01 T10061028  RH  085%=      5-min Rain = 0
KDC1 181343Z 27006KT M01/M03 A3013 RMK A01 T10051028  RH  085%=      5-min Rain = 0
KDC1 181344Z 27006KT M01/M03 A3013 RMK A01 T10051027  RH  085%=      5-min Rain = 0
KDC1 181345Z 27006KT M00/M03 A3013 RMK A01 T10031026  RH  084%=      5-min Rain = 0
KDC1 181346Z 28006KT M00/M03 A3013 RMK A01 T10021027  RH  083%=      5-min Rain = 0
KDC1 181347Z 28006KT M00/M03 A3013 RMK A01 T10031029  RH  083%=      5-min Rain = 0
KDC1 181348Z 29006KT M00/M03 A3013 RMK A01 T10031029  RH  082%=      5-min Rain = 0
KDC1 181349Z 29006KT M00/M03 A3013 RMK A01 T10031029  RH  082%=      5-min Rain = 0
KDC1 181350Z 28006KT M00/M03 A3013 RMK A01 T10031030  RH  082%=      5-min Rain = 0
KDC1 181351Z 28005KT M00/M03 A3013 RMK A01 T10041030  RH  082%=      5-min Rain = 0
KDC1 181352Z 28005KT M01/M03 A3013 RMK A01 T10051031  RH  082%=      5-min Rain = 0
KDC1 181353Z 29006KT M01/M03 A3013 RMK A01 T10051032  RH  082%=      5-min Rain = 0
KDC1 181354Z 29005KT M01/M03 A3013 RMK A01 T10061032  RH  083%=      5-min Rain = 0
KDC1 181355Z 30005KT M01/M03 A3014 RMK A01 T10071032  RH  083%=      5-min Rain = 0
KDC1 181356Z 30005KT M01/M03 A3014 RMK A01 T10071031  RH  084%=      5-min Rain = 0
KDC1 181357Z 29005KT M01/M03 A3014 RMK A01 T10061030  RH  084%=      5-min Rain = 0
KDC1 181358Z 28005KT M01/M03 A3014 RMK A01 T10051029  RH  084%=      5-min Rain = 0
KDC1 181359Z 28005KT M00/M03 A3014 RMK A01 T10041029  RH  084%=      5-min Rain = 0
KDC1 181400Z 28005KT M00/M03 A3013 RMK A01 T10031028  RH  083%=      5-min Rain = 0
KDC1 181401Z 28005KT M00/M03 A3013 RMK A01 T10011027  RH  083%=      5-min Rain = 0
KDC1 181402Z 28005KT 00/03 A3013 RMK A01 T00000-26  RH  083%=      5-min Rain = 0
KDC1 181403Z 27005KT 00/M03 A3013 RMK A01 T00011026  RH  082%=      5-min Rain = 0
KDC1 181404Z 27005KT 00/M03 A3013 RMK A01 T00021025  RH  082%=      5-min Rain = 0
KDC1 181405Z 27005KT 00/M03 A3013 RMK A01 T00041025  RH  081%=      5-min Rain = 0
KDC1 181406Z 27005KT 01/M02 A3013 RMK A01 T00051024  RH  081%=      5-min Rain = 0
KDC1 181407Z 26004KT 01/M02 A3013 RMK A01 T00061024  RH  080%=      5-min Rain = 0
KDC1 181408Z 26005KT 01/M03 A3013 RMK A01 T00071025  RH  079%=      5-min Rain = 0
KDC1 181409Z 26004KT 01/M03 A3013 RMK A01 T00071025  RH  079%=      5-min Rain = 0
KDC1 181410Z 27004KT 01/M02 A3013 RMK A01 T00081024  RH  079%=      5-min Rain = 0
KDC1 181411Z 28004KT 01/M02 A3013 RMK A01 T00081024  RH  079%=      5-min Rain = 0
KDC1 181412Z 30004KT 01/M02 A3013 RMK A01 T00081024  RH  079%=      5-min Rain = 0
KDC1 181413Z 30004KT 01/M02 A3013 RMK A01 T00091023  RH  079%=      5-min Rain = 0
KDC1 181414Z 30003KT 01/M02 A3013 RMK A01 T00101023  RH  079%=      5-min Rain = 0
KDC1 181415Z 30003KT 01/M02 A3013 RMK A01 T00111022  RH  079%=      5-min Rain = 0
KDC1 181416Z 29003KT 01/M02 A3013 RMK A01 T00121021  RH  079%=      5-min Rain = 0
KDC1 181417Z 28003KT 01/M02 A3013 RMK A01 T00131020  RH  079%=      5-min Rain = 0
KDC1 181418Z 28004KT 01/M02 A3013 RMK A01 T00141020  RH  078%=      5-min Rain = 0
KDC1 181419Z 28004KT 02/M02 A3013 RMK A01 T00151020  RH  078%=      5-min Rain = 0
KDC1 181420Z 28004KT 02/M02 A3013 RMK A01 T00151020  RH  078%=      5-min Rain = 0
KDC1 181421Z 28004KT 02/M02 A3013 RMK A01 T00161019  RH  078%=      5-min Rain = 0
KDC1 181422Z 28003KT 02/M02 A3013 RMK A01 T00161019  RH  077%=      5-min Rain = 0
KDC1 181423Z 27003KT 02/M02 A3013 RMK A01 T00171019  RH  077%=      5-min Rain = 0
KDC1 181424Z 28003KT 02/M02 A3013 RMK A01 T00171018  RH  077%=      5-min Rain = 0
KDC1 181425Z 29003KT 02/M02 A3013 RMK A01 T00181017  RH  077%=      5-min Rain = 0
KDC1 181426Z 29003KT 02/M02 A3013 RMK A01 T00201016  RH  077%=      5-min Rain = 0
KDC1 181427Z 29003KT 02/M02 A3013 RMK A01 T00211015  RH  077%=      5-min Rain = 0
KDC1 181428Z 29003KT 02/M01 A3014 RMK A01 T00221014  RH  077%=      5-min Rain = 0
KDC1 181429Z 28003KT 02/M01 A3013 RMK A01 T00231013  RH  077%=      5-min Rain = 0
KDC1 181430Z 27003KT 03/M01 A3013 RMK A01 T00251012  RH  077%=      5-min Rain = 0
KDC1 181431Z 27003KT 03/M01 A3013 RMK A01 T00251012  RH  076%=      5-min Rain = 0
KDC1 181432Z 27003KT 03/M01 A3013 RMK A01 T00261012  RH  076%=      5-min Rain = 0
KDC1 181433Z 26004KT 03/M01 A3013 RMK A01 T00261013  RH  076%=      5-min Rain = 0
KDC1 181434Z 26003KT 03/M01 A3013 RMK A01 T00271013  RH  075%=      5-min Rain = 0
KDC1 181435Z 26003KT 03/M01 A3013 RMK A01 T00281012  RH  075%=      5-min Rain = 0
KDC1 181436Z 25003KT 03/M01 A3013 RMK A01 T00291012  RH  075%=      5-min Rain = 0
KDC1 181437Z 25003KT 03/M01 A3013 RMK A01 T00301011  RH  074%=      5-min Rain = 0
KDC1 181438Z 24003KT 03/M01 A3013 RMK A01 T00311011  RH  074%=      5-min Rain = 0
KDC1 181439Z 23002KT 03/M01 A3013 RMK A01 T00321009  RH  074%=      5-min Rain = 0
KDC1 181440Z 23003KT 03/M01 A3013 RMK A01 T00331008  RH  074%=      5-min Rain = 0
KDC1 181441Z 21003KT 04/M01 A3013 RMK A01 T00351007  RH  074%=      5-min Rain = 0
KDC1 181442Z 20003KT 04/M01 A3013 RMK A01 T00371006  RH  074%=      5-min Rain = 0
KDC1 181443Z 21002KT 04/M00 A3013 RMK A01 T00391004  RH  074%=      5-min Rain = 0
KDC1 181444Z 23002KT 04/M00 A3013 RMK A01 T00411002  RH  073%=      5-min Rain = 0
KDC1 181445Z 22002KT 04/M00 A3013 RMK A01 T00421004  RH  072%=      5-min Rain = 0
KDC1 181446Z 22002KT 04/M01 A3013 RMK A01 T00421006  RH  071%=      5-min Rain = 0
KDC1 181447Z 24002KT 04/M01 A3013 RMK A01 T00421007  RH  070%=      5-min Rain = 0
KDC1 181448Z 26001KT 04/M01 A3013 RMK A01 T00421008  RH  070%=      5-min Rain = 0
KDC1 181449Z 26001KT 04/M01 A3013 RMK A01 T00421008  RH  070%=      5-min Rain = 0
KDC1 181450Z 25002KT 04/M01 A3013 RMK A01 T00421009  RH  069%=      5-min Rain = 0
KDC1 181451Z 26002KT 04/M01 A3013 RMK A01 T00431009  RH  069%=      5-min Rain = 0
KDC1 181452Z 25002KT 04/M01 A3013 RMK A01 T00421009  RH  069%=      5-min Rain = 0
KDC1 181453Z 25002KT 04/M01 A3013 RMK A01 T00421009  RH  069%=      5-min Rain = 0
KDC1 181454Z 25002KT 04/M01 A3013 RMK A01 T00431008  RH  069%=      5-min Rain = 0
KDC1 181455Z 25003KT 04/M01 A3013 RMK A01 T00431008  RH  070%=      5-min Rain = 0
KDC1 181456Z 26003KT 04/M01 A3013 RMK A01 T00431007  RH  070%=      5-min Rain = 0
KDC1 181457Z 26002KT 05/M00 A3013 RMK A01 T00451004  RH  071%=      5-min Rain = 0
KDC1 181458Z 27002KT 05/M00 A3013 RMK A01 T00461003  RH  071%=      5-min Rain = 0
KDC1 181459Z 26002KT 05/M00 A3013 RMK A01 T00471002  RH  070%=      5-min Rain = 0
KDC1 181500Z 27001KT 05/M00 A3013 RMK A01 T00491001  RH  070%=      5-min Rain = 0
KDC1 181501Z 27002KT 05/M00 A3013 RMK A01 T00501001  RH  070%=      5-min Rain = 0
KDC1 181502Z 27002KT 05/00 A3013 RMK A01 T005200-0  RH  069%=      5-min Rain = 0
KDC1 181503Z 27002KT 05/M00 A3013 RMK A01 T00531001  RH  068%=      5-min Rain = 0
KDC1 181504Z 26003KT 05/00 A3013 RMK A01 T00540000  RH  068%=      5-min Rain = 0
KDC1 181505Z 26002KT 06/00 A3013 RMK A01 T00560001  RH  068%=      5-min Rain = 0
KDC1 181506Z 25002KT 06/00 A3013 RMK A01 T00580003  RH  068%=      5-min Rain = 0
KDC1 181507Z 26002KT 06/00 A3013 RMK A01 T00600004  RH  067%=      5-min Rain = 0
KDC1 181508Z 27001KT 06/00 A3013 RMK A01 T00620004  RH  067%=      5-min Rain = 0
KDC1 181509Z 29000KT 06/00 A3013 RMK A01 T00630004  RH  066%=      5-min Rain = 0
KDC1 181510Z 30000KT 07/00 A3013 RMK A01 T00650002  RH  064%=      5-min Rain = 0
KDC1 181511Z 29000KT 07/00 A3013 RMK A01 T006600-0  RH  063%=      5-min Rain = 0
KDC1 181512Z 31001KT 07/00 A3013 RMK A01 T006700-0  RH  062%=      5-min Rain = 0
KDC1 181513Z 31001KT 07/00 A3013 RMK A01 T00680000  RH  062%=      5-min Rain = 0
KDC1 181514Z 31002KT 07/00 A3013 RMK A01 T00690002  RH  062%=      5-min Rain = 0
KDC1 181515Z 32002KT 07/01 A3013 RMK A01 T00710005  RH  063%=      5-min Rain = 0
KDC1 181516Z 32001KT 07/01 A3013 RMK A01 T00720005  RH  062%=      5-min Rain = 0
KDC1 181517Z 30001KT 07/01 A3013 RMK A01 T00730005  RH  062%=      5-min Rain = 0
KDC1 181518Z 32001KT 07/01 A3013 RMK A01 T00740005  RH  062%=      5-min Rain = 0
KDC1 181519Z 32001KT 08/01 A3013 RMK A01 T00750005  RH  061%=      5-min Rain = 0
KDC1 181520Z 32002KT 08/00 A3013 RMK A01 T00760001  RH  059%=      5-min Rain = 0
KDC1 181521Z 31002KT 08/M01 A3013 RMK A01 T00771005  RH  056%=      5-min Rain = 0
KDC1 181522Z 30001KT 08/M00 A3013 RMK A01 T00781003  RH  057%=      5-min Rain = 0
KDC1 181523Z 30000KT 08/M00 A3013 RMK A01 T00791001  RH  057%=      5-min Rain = 0
KDC1 181524Z 32001KT 08/M00 A3013 RMK A01 T00811002  RH  056%=      5-min Rain = 0
KDC1 181525Z 33000KT 08/M00 A3013 RMK A01 T00821001  RH  056%=      5-min Rain = 0
KDC1 181526Z 00000KT 08/M00 A3013 RMK A01 T00841001  RH  055%=      5-min Rain = 0
KDC1 181527Z 00000KT 09/00 A3013 RMK A01 T00860001  RH  055%=      5-min Rain = 0
KDC1 181528Z 04001KT 09/00 A3013 RMK A01 T00870001  RH  055%=      5-min Rain = 0
KDC1 181529Z 03001KT 09/M00 A3013 RMK A01 T00881002  RH  053%=      5-min Rain = 0
KDC1 181530Z 04000KT 09/M00 A3013 RMK A01 T00881001  RH  053%=      5-min Rain = 0
KDC1 181531Z 00000KT 09/M00 A3013 RMK A01 T00881001  RH  054%=      5-min Rain = 0
KDC1 181532Z 00000KT 09/M00 A3013 RMK A01 T00881001  RH  053%=      5-min Rain = 0
KDC1 181533Z 00000KT 09/00 A3013 RMK A01 T00910002  RH  054%=      5-min Rain = 0
KDC1 181534Z 00000KT 09/00 A3013 RMK A01 T00930003  RH  053%=      5-min Rain = 0
KDC1 181535Z 03000KT 10/00 A3013 RMK A01 T00950002  RH  052%=      5-min Rain = 0
KDC1 181536Z 04001KT 10/00 A3013 RMK A01 T009500-0  RH  051%=      5-min Rain = 0
KDC1 181537Z 05001KT 09/00 A3013 RMK A01 T00940000  RH  052%=      5-min Rain = 0
KDC1 181538Z 05000KT 09/00 A3013 RMK A01 T00940001  RH  052%=      5-min Rain = 0
KDC1 181539Z 09001KT 09/00 A3013 RMK A01 T00940001  RH  052%=      5-min Rain = 0
KDC1 181540Z 09001KT 10/00 A3013 RMK A01 T009500-0  RH  051%=      5-min Rain = 0
KDC1 181541Z 07001KT 10/00 A3013 RMK A01 T009500-0  RH  051%=      5-min Rain = 0
KDC1 181542Z 05001KT 09/00 A3013 RMK A01 T009400-0  RH  052%=      5-min Rain = 0
KDC1 181543Z 00000KT 09/00 A3013 RMK A01 T00940000  RH  052%=      5-min Rain = 0
KDC1 181544Z 00000KT 10/00 A3013 RMK A01 T00980004  RH  052%=      5-min Rain = 0
KDC1 181545Z 13001KT 10/01 A3013 RMK A01 T01020006  RH  051%=      5-min Rain = 0
KDC1 181546Z 13001KT 10/01 A3013 RMK A01 T01040006  RH  051%=      5-min Rain = 0
KDC1 181547Z 11000KT 11/01 A3013 RMK A01 T01050006  RH  050%=      5-min Rain = 0
KDC1 181548Z 16001KT 11/01 A3013 RMK A01 T01060006  RH  050%=      5-min Rain = 0
KDC1 181549Z 16000KT 11/01 A3013 RMK A01 T01070007  RH  050%=      5-min Rain = 0
KDC1 181550Z 27001KT 11/01 A3013 RMK A01 T01060006  RH  050%=      5-min Rain = 0
KDC1 181551Z 27001KT 10/00 A3013 RMK A01 T01040004  RH  050%=      5-min Rain = 0
KDC1 181552Z 23001KT 10/01 A3013 RMK A01 T01020006  RH  051%=      5-min Rain = 0
KDC1 181553Z 24001KT 10/01 A3013 RMK A01 T01020007  RH  052%=      5-min Rain = 0
KDC1 181554Z 23001KT 10/01 A3013 RMK A01 T01020005  RH  051%=      5-min Rain = 0
KDC1 181555Z 21000KT 10/01 A3013 RMK A01 T01020006  RH  051%=      5-min Rain = 0
KDC1 181556Z 08000KT 10/01 A3013 RMK A01 T01040008  RH  051%=      5-min Rain = 0
KDC1 181557Z 10001KT 11/01 A3013 RMK A01 T01070008  RH  051%=      5-min Rain = 0
KDC1 181558Z 05002KT 11/01 A3013 RMK A01 T01070007  RH  050%=      5-min Rain = 0
KDC1 181559Z 08001KT 11/01 A3013 RMK A01 T01060008  RH  051%=      5-min Rain = 0
KDC1 181600Z 10001KT 11/01 A3013 RMK A01 T01060009  RH  051%=      5-min Rain = 0
KDC1 181601Z 11002KT 11/01 A3013 RMK A01 T01060009  RH  051%=      5-min Rain = 0
KDC1 181602Z 09001KT 11/01 A3013 RMK A01 T01050008  RH  051%=      5-min Rain = 0
KDC1 181603Z 07000KT 11/01 A3013 RMK A01 T01050008  RH  051%=      5-min Rain = 0
KDC1 181604Z 00000KT 11/01 A3013 RMK A01 T01050007  RH  051%=      5-min Rain = 0
KDC1 181605Z 07000KT 11/01 A3013 RMK A01 T01090009  RH  050%=      5-min Rain = 0
KDC1 181606Z 00000KT 11/01 A3013 RMK A01 T01120011  RH  050%=      5-min Rain = 0
KDC1 181607Z 05000KT 11/01 A3013 RMK A01 T01120009  RH  049%=      5-min Rain = 0
KDC1 181608Z 00000KT 11/01 A3013 RMK A01 T01120008  RH  049%=      5-min Rain = 0
KDC1 181609Z 16001KT 11/01 A3013 RMK A01 T01110008  RH  049%=      5-min Rain = 0
KDC1 181610Z 15001KT 11/01 A3013 RMK A01 T01110011  RH  050%=      5-min Rain = 0
KDC1 181611Z 12001KT 11/01 A3013 RMK A01 T01120009  RH  049%=      5-min Rain = 0
KDC1 181612Z 10002KT 11/01 A3013 RMK A01 T01120010  RH  049%=      5-min Rain = 0
KDC1 181613Z 08003KT 11/01 A3014 RMK A01 T01110012  RH  050%=      5-min Rain = 0
KDC1 181614Z 08004KT 11/01 A3013 RMK A01 T01090010  RH  050%=      5-min Rain = 0
KDC1 181615Z 10003KT 11/01 A3013 RMK A01 T01060008  RH  051%=      5-min Rain = 0
KDC1 181616Z 09002KT 11/01 A3013 RMK A01 T01050009  RH  051%=      5-min Rain = 0
KDC1 181617Z 08002KT 10/01 A3013 RMK A01 T01040008  RH  051%=      5-min Rain = 0
KDC1 181618Z 09002KT 10/01 A3013 RMK A01 T01040008  RH  052%=      5-min Rain = 0
KDC1 181619Z 10001KT 10/01 A3013 RMK A01 T01040008  RH  052%=      5-min Rain = 0
KDC1 181620Z 08002KT 11/01 A3013 RMK A01 T01050010  RH  052%=      5-min Rain = 0
KDC1 181621Z 08002KT 11/01 A3013 RMK A01 T01060008  RH  051%=      5-min Rain = 0
KDC1 181622Z 08003KT 11/01 A3014 RMK A01 T01060008  RH  051%=      5-min Rain = 0
KDC1 181623Z 06003KT 11/01 A3014 RMK A01 T01050008  RH  051%=      5-min Rain = 0
KDC1 181624Z 06002KT 11/01 A3014 RMK A01 T01050008  RH  051%=      5-min Rain = 0
KDC1 181625Z 07001KT 11/01 A3014 RMK A01 T01050006  RH  050%=      5-min Rain = 0
KDC1 181626Z 10002KT 11/01 A3014 RMK A01 T01050008  RH  051%=      5-min Rain = 0
KDC1 181627Z 10001KT 11/01 A3014 RMK A01 T01070007  RH  050%=      5-min Rain = 0
KDC1 181628Z 10001KT 11/01 A3014 RMK A01 T01080008  RH  050%=      5-min Rain = 0
KDC1 181629Z 09001KT 11/01 A3014 RMK A01 T01100006  RH  049%=      5-min Rain = 0
KDC1 181630Z 11001KT 11/01 A3014 RMK A01 T01100006  RH  049%=      5-min Rain = 0
KDC1 181631Z 12001KT 11/01 A3014 RMK A01 T01110006  RH  048%=      5-min Rain = 0
KDC1 181632Z 12000KT 11/01 A3014 RMK A01 T01120007  RH  048%=      5-min Rain = 0
KDC1 181633Z 11001KT 12/01 A3013 RMK A01 T01160009  RH  048%=      5-min Rain = 0
KDC1 181634Z 14001KT 12/01 A3013 RMK A01 T01190012  RH  048%=      5-min Rain = 0
KDC1 181635Z 10002KT 12/01 A3013 RMK A01 T01210014  RH  048%=      5-min Rain = 0
KDC1 181636Z 11002KT 12/01 A3013 RMK A01 T01200014  RH  048%=      5-min Rain = 0
KDC1 181637Z 13001KT 12/01 A3013 RMK A01 T01180012  RH  048%=      5-min Rain = 0
KDC1 181638Z 10002KT 12/01 A3013 RMK A01 T01180014  RH  049%=      5-min Rain = 0
KDC1 181639Z 12001KT 12/01 A3013 RMK A01 T01180013  RH  049%=      5-min Rain = 0
KDC1 181640Z 11003KT 12/01 A3013 RMK A01 T01180013  RH  049%=      5-min Rain = 0
KDC1 181641Z 12003KT 12/01 A3013 RMK A01 T01170012  RH  049%=      5-min Rain = 0
KDC1 181642Z 11003KT 12/01 A3013 RMK A01 T01150010  RH  048%=      5-min Rain = 0
KDC1 181643Z 09003KT 11/01 A3013 RMK A01 T01130009  RH  049%=      5-min Rain = 0
KDC1 181644Z 09003KT 11/01 A3013 RMK A01 T01110010  RH  050%=      5-min Rain = 0
KDC1 181645Z 09004KT 11/01 A3013 RMK A01 T01100011  RH  050%=      5-min Rain = 0
KDC1 181646Z 08004KT 11/01 A3013 RMK A01 T01100012  RH  051%=      5-min Rain = 0
KDC1 181647Z 08003KT 11/01 A3013 RMK A01 T01090012  RH  051%=      5-min Rain = 0
KDC1 181648Z 08004KT 11/01 A3013 RMK A01 T01090011  RH  051%=      5-min Rain = 0
KDC1 181649Z 08004KT 11/01 A3013 RMK A01 T01090012  RH  051%=      5-min Rain = 0
KDC1 181650Z 08004KT 11/01 A3013 RMK A01 T01090011  RH  051%=      5-min Rain = 0
KDC1 181651Z 10005KT 11/01 A3013 RMK A01 T01090011  RH  051%=      5-min Rain = 0
KDC1 181652Z 11005KT 11/01 A3013 RMK A01 T01090012  RH  051%=      5-min Rain = 0
KDC1 181653Z 12005KT 11/01 A3013 RMK A01 T01110014  RH  051%=      5-min Rain = 0
KDC1 181654Z 10004KT 11/01 A3013 RMK A01 T01120013  RH  051%=      5-min Rain = 0
KDC1 181655Z 09004KT 11/01 A3013 RMK A01 T01130013  RH  050%=      5-min Rain = 0
KDC1 181656Z 12004KT 11/01 A3013 RMK A01 T01130013  RH  050%=      5-min Rain = 0
KDC1 181657Z 13004KT 11/02 A3013 RMK A01 T01140015  RH  050%=      5-min Rain = 0
KDC1 181658Z 09004KT 12/01 A3013 RMK A01 T01150014  RH  050%=      5-min Rain = 0
KDC1 181659Z 09005KT 11/01 A3013 RMK A01 T01140012  RH  049%=      5-min Rain = 0
KDC1 181700Z 09003KT 11/01 A3013 RMK A01 T01130013  RH  050%=      5-min Rain = 0
KDC1 181701Z 12006KT 11/02 A3013 RMK A01 T01130018  RH  052%=      5-min Rain = 0
KDC1 181702Z 11005KT 12/02 A3013 RMK A01 T01160018  RH  051%=      5-min Rain = 0
KDC1 181703Z 12005KT 12/02 A3012 RMK A01 T01170017  RH  050%=      5-min Rain = 0
KDC1 181704Z 11004KT 12/02 A3012 RMK A01 T01160015  RH  050%=      5-min Rain = 0
KDC1 181705Z 10003KT 12/02 A3012 RMK A01 T01160016  RH  050%=      5-min Rain = 0
KDC1 181706Z 10004KT 12/02 A3012 RMK A01 T01170018  RH  051%=      5-min Rain = 0
KDC1 181707Z 10004KT 12/02 A3012 RMK A01 T01200020  RH  050%=      5-min Rain = 0
KDC1 181708Z 09004KT 12/02 A3012 RMK A01 T01200018  RH  050%=      5-min Rain = 0
KDC1 181709Z 11004KT 12/02 A3012 RMK A01 T01210020  RH  050%=      5-min Rain = 0
KDC1 181710Z 10002KT 12/02 A3012 RMK A01 T01230020  RH  049%=      5-min Rain = 0
KDC1 181711Z 13003KT 12/02 A3012 RMK A01 T01240017  RH  048%=      5-min Rain = 0
KDC1 181712Z 12004KT 13/02 A3012 RMK A01 T01250016  RH  048%=      5-min Rain = 0
KDC1 181713Z 10004KT 12/01 A3012 RMK A01 T01240014  RH  047%=      5-min Rain = 0
KDC1 181714Z 09004KT 12/02 A3012 RMK A01 T01230015  RH  047%=      5-min Rain = 0
KDC1 181715Z 09004KT 12/01 A3012 RMK A01 T01230014  RH  047%=      5-min Rain = 0
KDC1 181716Z 08003KT 12/02 A3012 RMK A01 T01230015  RH  048%=      5-min Rain = 0
KDC1 181717Z 09004KT 12/02 A3012 RMK A01 T01230015  RH  048%=      5-min Rain = 0
KDC1 181718Z 10004KT 12/01 A3012 RMK A01 T01240013  RH  047%=      5-min Rain = 0
KDC1 181719Z 12005KT 12/01 A3012 RMK A01 T01240014  RH  047%=      5-min Rain = 0
KDC1 181720Z 11005KT 12/01 A3011 RMK A01 T01240013  RH  046%=      5-min Rain = 0
KDC1 181721Z 09004KT 12/01 A3011 RMK A01 T01230013  RH  047%=      5-min Rain = 0
KDC1 181722Z 08004KT 12/02 A3011 RMK A01 T01230015  RH  048%=      5-min Rain = 0
KDC1 181723Z 09004KT 12/02 A3011 RMK A01 T01230015  RH  048%=      5-min Rain = 0
KDC1 181724Z 11003KT 12/01 A3011 RMK A01 T01240014  RH  047%=      5-min Rain = 0
KDC1 181725Z 10003KT 13/02 A3011 RMK A01 T01250015  RH  047%=      5-min Rain = 0
KDC1 181726Z 10004KT 13/02 A3011 RMK A01 T01250015  RH  047%=      5-min Rain = 0
KDC1 181727Z 12004KT 13/02 A3011 RMK A01 T01260015  RH  047%=      5-min Rain = 0
KDC1 181728Z 11003KT 13/02 A3011 RMK A01 T01260015  RH  047%=      5-min Rain = 0
KDC1 181729Z 08005KT 13/02 A3011 RMK A01 T01270015  RH  047%=      5-min Rain = 0
KDC1 181730Z 09004KT 13/02 A3011 RMK A01 T01270015  RH  046%=      5-min Rain = 0
KDC1 181731Z 11005KT 13/02 A3011 RMK A01 T01290018  RH  047%=      5-min Rain = 0
KDC1 181732Z 10004KT 13/02 A3011 RMK A01 T01300016  RH  046%=      5-min Rain = 0
KDC1 181733Z 10004KT 13/02 A3011 RMK A01 T01290016  RH  046%=      5-min Rain = 0
KDC1 181734Z 10004KT 13/02 A3011 RMK A01 T01290017  RH  046%=      5-min Rain = 0
KDC1 181735Z 11004KT 13/02 A3011 RMK A01 T01310017  RH  046%=      5-min Rain = 0
KDC1 181736Z 10005KT 13/02 A3011 RMK A01 T01320016  RH  045%=      5-min Rain = 0
KDC1 181737Z 10004KT 13/01 A3011 RMK A01 T01310013  RH  045%=      5-min Rain = 0
KDC1 181738Z 09005KT 13/01 A3011 RMK A01 T01280013  RH  045%=      5-min Rain = 0
KDC1 181739Z 11005KT 13/01 A3011 RMK A01 T01280014  RH  046%=      5-min Rain = 0
KDC1 181740Z 11005KT 13/02 A3011 RMK A01 T01300017  RH  046%=      5-min Rain = 0
KDC1 181741Z 09006KT 13/01 A3011 RMK A01 T01320014  RH  045%=      5-min Rain = 0
KDC1 181742Z 09005KT 13/01 A3011 RMK A01 T01310012  RH  044%=      5-min Rain = 0
KDC1 181743Z 11005KT 13/01 A3011 RMK A01 T01300014  RH  045%=      5-min Rain = 0
KDC1 181744Z 08005KT 13/01 A3011 RMK A01 T01300012  RH  044%=      5-min Rain = 0
KDC1 181745Z 08004KT 13/01 A3011 RMK A01 T01290011  RH  044%=      5-min Rain = 0
KDC1 181746Z 09004KT 13/01 A301 RMK A01 T01290013  RH  045%=      5-min Rain = 0
KDC1 181747Z 10004KT 13/01 A301 RMK A01 T01320014  RH  045%=      5-min Rain = 0
KDC1 181748Z 11003KT 13/01 A301 RMK A01 T01320013  RH  044%=      5-min Rain = 0
KDC1 181749Z 10005KT 13/01 A301 RMK A01 T01330013  RH  044%=      5-min Rain = 0
KDC1 181750Z 10005KT 13/01 A301 RMK A01 T01340011  RH  043%=      5-min Rain = 0
KDC1 181751Z 08003KT 13/01 A301 RMK A01 T01340010  RH  043%=      5-min Rain = 0
KDC1 181752Z 09005KT 13/01 A301 RMK A01 T01330012  RH  044%=      5-min Rain = 0
KDC1 181753Z 10005KT 13/01 A301 RMK A01 T01340011  RH  043%=      5-min Rain = 0
KDC1 181754Z 08004KT 13/01 A301 RMK A01 T01330011  RH  043%=      5-min Rain = 0
KDC1 181755Z 07004KT 13/01 A301 RMK A01 T01340011  RH  043%=      5-min Rain = 0
KDC1 181756Z 08004KT 13/01 A301 RMK A01 T01340010  RH  043%=      5-min Rain = 0
KDC1 181757Z 10004KT 14/01 A301 RMK A01 T01350011  RH  043%=      5-min Rain = 0
KDC1 181758Z 10004KT 14/01 A301 RMK A01 T01360011  RH  042%=      5-min Rain = 0
KDC1 181759Z 10003KT 14/01 A301 RMK A01 T01360011  RH  042%=      5-min Rain = 0
KDC1 181800Z 09004KT 14/01 A301 RMK A01 T01370010  RH  042%=      5-min Rain = 0
KDC1 181801Z 08004KT 14/01 A301 RMK A01 T01370009  RH  042%=      5-min Rain = 0
KDC1 181802Z 08004KT 14/01 A301 RMK A01 T01370010  RH  042%=      5-min Rain = 0
KDC1 181803Z 08005KT 14/01 A301 RMK A01 T01380009  RH  041%=      5-min Rain = 0
KDC1 181804Z 08004KT 14/01 A301 RMK A01 T01390009  RH  041%=      5-min Rain = 0
KDC1 181805Z 08003KT 14/01 A301 RMK A01 T01390009  RH  041%=      5-min Rain = 0
KDC1 181806Z 11005KT 14/01 A301 RMK A01 T01400010  RH  041%=      5-min Rain = 0
KDC1 181807Z 11004KT 14/01 A301 RMK A01 T01420010  RH  041%=      5-min Rain = 0
KDC1 181808Z 11004KT 14/01 A301 RMK A01 T01440010  RH  040%=      5-min Rain = 0
KDC1 181809Z 11004KT 15/01 A3009 RMK A01 T01450007  RH  039%=      5-min Rain = 0
KDC1 181810Z 11004KT 14/01 A3009 RMK A01 T01440007  RH  039%=      5-min Rain = 0
KDC1 181811Z 10004KT 14/01 A3009 RMK A01 T01430010  RH  040%=      5-min Rain = 0
KDC1 181812Z 09004KT 15/01 A3009 RMK A01 T01450010  RH  040%=      5-min Rain = 0
KDC1 181813Z 09004KT 15/01 A3009 RMK A01 T01450011  RH  040%=      5-min Rain = 0
KDC1 181814Z 08003KT 15/01 A3009 RMK A01 T01450012  RH  040%=      5-min Rain = 0
KDC1 181815Z 09004KT 15/01 A3009 RMK A01 T01460012  RH  040%=      5-min Rain = 0
KDC1 181816Z 09003KT 15/01 A3009 RMK A01 T01490013  RH  040%=      5-min Rain = 0
KDC1 181817Z 09003KT 15/02 A3009 RMK A01 T01490016  RH  040%=      5-min Rain = 0
KDC1 181818Z 08004KT 15/02 A3009 RMK A01 T01500019  RH  041%=      5-min Rain = 0
KDC1 181819Z 08005KT 15/02 A3009 RMK A01 T01510020  RH  041%=      5-min Rain = 0
KDC1 181820Z 07005KT 15/02 A3009 RMK A01 T01520016  RH  040%=      5-min Rain = 0
KDC1 181821Z 08005KT 15/01 A3009 RMK A01 T01520013  RH  039%=      5-min Rain = 0
KDC1 181822Z 08004KT 15/01 A3009 RMK A01 T01490014  RH  040%=      5-min Rain = 0
KDC1 181823Z 08004KT 15/02 A3009 RMK A01 T01480017  RH  041%=      5-min Rain = 0
KDC1 181824Z 07003KT 15/02 A3009 RMK A01 T01490017  RH  041%=      5-min Rain = 0
KDC1 181825Z 09005KT 15/02 A3009 RMK A01 T01510016  RH  040%=      5-min Rain = 0
KDC1 181826Z 09005KT 15/01 A3008 RMK A01 T01510014  RH  039%=      5-min Rain = 0
KDC1 181827Z 09003KT 15/01 A3008 RMK A01 T01500013  RH  040%=      5-min Rain = 0
KDC1 181828Z 07003KT 15/02 A3008 RMK A01 T01510016  RH  040%=      5-min Rain = 0
KDC1 181829Z 09005KT 15/02 A3008 RMK A01 T01520021  RH  041%=      5-min Rain = 0
KDC1 181830Z 10005KT 15/02 A3008 RMK A01 T01540019  RH  040%=      5-min Rain = 0
KDC1 181831Z 09004KT 15/02 A3008 RMK A01 T01540017  RH  039%=      5-min Rain = 0
KDC1 181832Z 08004KT 16/02 A3008 RMK A01 T01550019  RH  040%=      5-min Rain = 0
KDC1 181833Z 08003KT 16/02 A3008 RMK A01 T01560018  RH  039%=      5-min Rain = 0
KDC1 181834Z 07004KT 16/02 A3008 RMK A01 T01550019  RH  040%=      5-min Rain = 0
KDC1 181835Z 08005KT 16/02 A3008 RMK A01 T01550018  RH  040%=      5-min Rain = 0
KDC1 181836Z 09005KT 16/02 A3008 RMK A01 T01560016  RH  039%=      5-min Rain = 0
KDC1 181837Z 08004KT 16/02 A3008 RMK A01 T01550015  RH  039%=      5-min Rain = 0
KDC1 181838Z 07005KT 16/02 A3008 RMK A01 T01560016  RH  039%=      5-min Rain = 0
KDC1 181839Z 07004KT 16/02 A3008 RMK A01 T01560015  RH  038%=      5-min Rain = 0
KDC1 181840Z 07004KT 16/02 A3008 RMK A01 T01560016  RH  039%=      5-min Rain = 0
KDC1 181841Z 08005KT 16/01 A3008 RMK A01 T01560013  RH  038%=      5-min Rain = 0
KDC1 181842Z 08006KT 16/01 A3007 RMK A01 T01560010  RH  037%=      5-min Rain = 0
KDC1 181843Z 07007KT 16/01 A3007 RMK A01 T01560011  RH  037%=      5-min Rain = 0
KDC1 181844Z 08004KT 16/01 A3007 RMK A01 T01560007  RH  036%=      5-min Rain = 0
KDC1 181845Z 07005KT 16/02 A3007 RMK A01 T01560015  RH  038%=      5-min Rain = 0
KDC1 181846Z 07006KT 16/02 A3007 RMK A01 T01560016  RH  039%=      5-min Rain = 0
KDC1 181847Z 08006KT 16/02 A3007 RMK A01 T01580017  RH  038%=      5-min Rain = 0
KDC1 181848Z 08006KT 16/02 A3007 RMK A01 T01590017  RH  038%=      5-min Rain = 0
KDC1 181849Z 08006KT 16/02 A3007 RMK A01 T01600015  RH  037%=      5-min Rain = 0
KDC1 181850Z 09005KT 16/01 A3007 RMK A01 T01610013  RH  037%=      5-min Rain = 0
KDC1 181851Z 10004KT 16/01 A3007 RMK A01 T01600014  RH  037%=      5-min Rain = 0
KDC1 181852Z 10004KT 16/02 A3007 RMK A01 T01600016  RH  038%=      5-min Rain = 0
KDC1 181853Z 10004KT 16/02 A3007 RMK A01 T01610016  RH  037%=      5-min Rain = 0
KDC1 181854Z 10004KT 16/02 A3007 RMK A01 T01620017  RH  037%=      5-min Rain = 0
KDC1 181855Z 08003KT 16/02 A3006 RMK A01 T01630017  RH  037%=      5-min Rain = 0
KDC1 181856Z 07004KT 16/02 A3006 RMK A01 T01630016  RH  037%=      5-min Rain = 0
KDC1 181857Z 08004KT 16/01 A3006 RMK A01 T01630007  RH  035%=      5-min Rain = 0
KDC1 181858Z 08004KT 16/00 A3006 RMK A01 T01640003  RH  033%=      5-min Rain = 0
KDC1 181859Z 08006KT 16/01 A3006 RMK A01 T01640005  RH  034%=      5-min Rain = 0
KDC1 181900Z 07005KT 17/01 A3006 RMK A01 T01650006  RH  034%=      5-min Rain = 0
KDC1 181901Z 08004KT 17/01 A3006 RMK A01 T01660010  RH  035%=      5-min Rain = 0
KDC1 181902Z 08004KT 17/01 A3006 RMK A01 T01680009  RH  034%=      5-min Rain = 0
KDC1 181903Z 06004KT 17/01 A3006 RMK A01 T01700012  RH  034%=      5-min Rain = 0
KDC1 181904Z 06006KT 17/01 A3006 RMK A01 T01710006  RH  033%=      5-min Rain = 0
KDC1 181905Z 07006KT 17/00 A3006 RMK A01 T01720004  RH  032%=      5-min Rain = 0
KDC1 181906Z 07006KT 17/00 A3006 RMK A01 T01720004  RH  032%=      5-min Rain = 0
KDC1 181907Z 08005KT 17/00 A3006 RMK A01 T01720002  RH  032%=      5-min Rain = 0
KDC1 181908Z 07006KT 17/00 A3006 RMK A01 T01730004  RH  032%=      5-min Rain = 0
KDC1 181909Z 07006KT 17/M01 A3006 RMK A01 T01731007  RH  029%=      5-min Rain = 0
KDC1 181910Z 05006KT 17/M01 A3006 RMK A01 T01731008  RH  029%=      5-min Rain = 0
KDC1 181911Z 07006KT 17/M01 A3006 RMK A01 T01721005  RH  030%=      5-min Rain = 0
KDC1 181912Z 07006KT 17/M01 A3006 RMK A01 T01721006  RH  030%=      5-min Rain = 0
KDC1 181913Z 07006KT 17/M01 A3005 RMK A01 T01731009  RH  029%=      5-min Rain = 0
KDC1 181914Z 07006KT 17/M01 A3005 RMK A01 T01741005  RH  030%=      5-min Rain = 0
KDC1 181915Z 08005KT 18/M00 A3005 RMK A01 T01751004  RH  030%=      5-min Rain = 0
KDC1 181916Z 09004KT 18/M00 A3005 RMK A01 T01751002  RH  030%=      5-min Rain = 0
KDC1 181917Z 07006KT 18/M00 A3005 RMK A01 T01761004  RH  029%=      5-min Rain = 0
KDC1 181918Z 06005KT 18/M00 A3005 RMK A01 T01761004  RH  029%=      5-min Rain = 0
KDC1 181919Z 07006KT 18/M00 A3005 RMK A01 T01771002  RH  030%=      5-min Rain = 0
KDC1 181920Z 07007KT 18/M00 A3005 RMK A01 T01781004  RH  029%=      5-min Rain = 0
KDC1 181921Z 07006KT 18/M01 A3005 RMK A01 T01791005  RH  029%=      5-min Rain = 0
KDC1 181922Z 06005KT 18/M01 A3005 RMK A01 T01811006  RH  028%=      5-min Rain = 0
KDC1 181923Z 08005KT 18/M01 A3005 RMK A01 T01811007  RH  028%=      5-min Rain = 0
KDC1 181924Z 09006KT 18/M01 A3005 RMK A01 T01801010  RH  028%=      5-min Rain = 0
KDC1 181925Z 08006KT 18/M01 A3005 RMK A01 T01791013  RH  027%=      5-min Rain = 0
KDC1 181926Z 09004KT 18/M01 A3004 RMK A01 T01801011  RH  027%=      5-min Rain = 0
KDC1 181927Z 10005KT 18/M01 A3004 RMK A01 T01811009  RH  028%=      5-min Rain = 0
KDC1 181928Z 10005KT 18/M01 A3004 RMK A01 T01821010  RH  027%=      5-min Rain = 0
KDC1 181929Z 11005KT 18/M01 A3004 RMK A01 T01831011  RH  027%=      5-min Rain = 0
KDC1 181930Z 11004KT 18/M01 A3004 RMK A01 T01831013  RH  026%=      5-min Rain = 0
KDC1 181931Z 08006KT 18/M01 A3004 RMK A01 T01831012  RH  027%=      5-min Rain = 0
KDC1 181932Z 08004KT 18/M01 A3004 RMK A01 T01821011  RH  027%=      5-min Rain = 0
KDC1 181933Z 08005KT 18/M01 A3004 RMK A01 T01821010  RH  027%=      5-min Rain = 0
KDC1 181934Z 07005KT 18/M01 A3004 RMK A01 T01831009  RH  027%=      5-min Rain = 0
KDC1 181935Z 08005KT 19/M00 A3004 RMK A01 T01861004  RH  028%=      5-min Rain = 0
KDC1 181936Z 07005KT 19/M01 A3004 RMK A01 T01881005  RH  027%=      5-min Rain = 0
KDC1 181937Z 09005KT 19/M01 A3004 RMK A01 T01891010  RH  026%=      5-min Rain = 0
KDC1 181938Z 09004KT 19/M01 A3004 RMK A01 T01871013  RH  026%=      5-min Rain = 0
KDC1 181939Z 11004KT 19/M01 A3003 RMK A01 T01861013  RH  026%=      5-min Rain = 0
KDC1 181940Z 09004KT 19/M01 A3003 RMK A01 T01861009  RH  027%=      5-min Rain = 0
KDC1 181941Z 08004KT 19/M01 A3003 RMK A01 T01861010  RH  027%=      5-min Rain = 0
KDC1 181942Z 07003KT 19/M01 A3003 RMK A01 T01871011  RH  026%=      5-min Rain = 0
KDC1 181943Z 10004KT 19/M01 A3003 RMK A01 T01871010  RH  026%=      5-min Rain = 0
KDC1 181944Z 10005KT 19/M01 A3003 RMK A01 T01871010  RH  026%=      5-min Rain = 0
KDC1 181945Z 12003KT 19/M01 A3003 RMK A01 T01881010  RH  026%=      5-min Rain = 0
KDC1 181946Z 12003KT 19/M01 A3003 RMK A01 T01881005  RH  027%=      5-min Rain = 0
KDC1 181947Z 11001KT 19/M01 A3003 RMK A01 T01901006  RH  027%=      5-min Rain = 0
KDC1 181948Z 09002KT 19/M01 A3003 RMK A01 T01911008  RH  026%=      5-min Rain = 0
KDC1 181949Z 08004KT 19/M01 A3003 RMK A01 T01921011  RH  025%=      5-min Rain = 0
KDC1 181950Z 09003KT 19/M01 A3003 RMK A01 T01921013  RH  025%=      5-min Rain = 0
KDC1 181951Z 10003KT 19/M01 A3003 RMK A01 T01921008  RH  026%=      5-min Rain = 0
KDC1 181952Z 12002KT 19/M01 A3003 RMK A01 T01931009  RH  026%=      5-min Rain = 0
KDC1 181953Z 10003KT 19/M01 A3003 RMK A01 T01941007  RH  026%=      5-min Rain = 0
KDC1 181954Z 11004KT 20/M00 A3003 RMK A01 T01971002  RH  026%=      5-min Rain = 0
KDC1 181955Z 12003KT 20/M00 A3002 RMK A01 T01971004  RH  026%=      5-min Rain = 0
KDC1 181956Z 13004KT 20/M00 A3002 RMK A01 T01981002  RH  026%=      5-min Rain = 0
KDC1 181957Z 13004KT 20/M00 A3002 RMK A01 T01991003  RH  026%=      5-min Rain = 0
KDC1 181958Z 12003KT 20/M01 A3002 RMK A01 T01981008  RH  025%=      5-min Rain = 0
KDC1 181959Z 11004KT 20/M01 A3002 RMK A01 T01971008  RH  025%=      5-min Rain = 0
KDC1 182000Z 11003KT 20/M01 A3002 RMK A01 T01971008  RH  025%=      5-min Rain = 0
KDC1 182001Z 14001KT 20/M01 A3002 RMK A01 T01971009  RH  025%=      5-min Rain = 0
KDC1 182002Z 14001KT 20/M01 A3002 RMK A01 T01981011  RH  025%=      5-min Rain = 0
KDC1 182003Z 12003KT 20/M01 A3002 RMK A01 T01991008  RH  025%=      5-min Rain = 0
KDC1 182004Z 15002KT 20/M01 A3002 RMK A01 T01991007  RH  025%=      5-min Rain = 0
KDC1 182005Z 11004KT 20/M00 A3002 RMK A01 T01991002  RH  026%=      5-min Rain = 0
KDC1 182006Z 12002KT 20/M01 A3002 RMK A01 T01991010  RH  024%=      5-min Rain = 0
KDC1 182007Z 13002KT 20/M01 A3002 RMK A01 T01981012  RH  024%=      5-min Rain = 0
KDC1 182008Z 15001KT 20/M01 A3002 RMK A01 T01981012  RH  024%=      5-min Rain = 0
KDC1 182009Z 13001KT 20/M01 A3002 RMK A01 T01991010  RH  024%=      5-min Rain = 0
KDC1 182010Z 17000KT 20/M01 A3002 RMK A01 T02021008  RH  024%=      5-min Rain = 0
KDC1 182011Z 00000KT 20/M01 A3002 RMK A01 T02041009  RH  024%=      5-min Rain = 0
KDC1 182012Z 00000KT 21/M01 A3002 RMK A01 T02071009  RH  024%=      5-min Rain = 0
KDC1 182013Z 08001KT 21/M01 A3002 RMK A01 T02091006  RH  024%=      5-min Rain = 0
KDC1 182014Z 06002KT 21/M01 A3002 RMK A01 T02091007  RH  024%=      5-min Rain = 0
KDC1 182015Z 04002KT 21/M01 A3002 RMK A01 T02091008  RH  023%=      5-min Rain = 0
KDC1 182016Z 05003KT 21/M01 A3002 RMK A01 T02071011  RH  023%=      5-min Rain = 0
KDC1 182017Z 05002KT 20/M01 A3002 RMK A01 T02041011  RH  023%=      5-min Rain = 0
KDC1 182018Z 04001KT 20/M01 A3002 RMK A01 T02021011  RH  024%=      5-min Rain = 0
KDC1 182019Z 33001KT 20/M01 A3002 RMK A01 T02021012  RH  024%=      5-min Rain = 0
KDC1 182020Z 11000KT 20/M01 A3002 RMK A01 T02021011  RH  024%=      5-min Rain = 0
KDC1 182021Z 10002KT 20/M01 A3002 RMK A01 T02031009  RH  024%=      5-min Rain = 0
KDC1 182022Z 04003KT 20/M01 A3002 RMK A01 T02041009  RH  024%=      5-min Rain = 0
KDC1 182023Z 04003KT 20/M01 A3002 RMK A01 T02041011  RH  024%=      5-min Rain = 0
KDC1 182024Z 04004KT 20/M01 A3001 RMK A01 T02021012  RH  024%=      5-min Rain = 0
KDC1 182025Z 03003KT 20/M01 A3001 RMK A01 T02001013  RH  024%=      5-min Rain = 0
KDC1 182026Z 04001KT 20/M01 A3001 RMK A01 T01991014  RH  024%=      5-min Rain = 0
KDC1 182027Z 05001KT 20/M01 A3001 RMK A01 T01991013  RH  024%=      5-min Rain = 0
KDC1 182028Z 35002KT 20/M01 A3001 RMK A01 T01991014  RH  024%=      5-min Rain = 0
KDC1 182029Z 32001KT 20/M02 A3001 RMK A01 T01991015  RH  024%=      5-min Rain = 0
KDC1 182030Z 07001KT 20/M01 A3001 RMK A01 T02001014  RH  024%=      5-min Rain = 0
KDC1 182031Z 08004KT 20/M01 A3001 RMK A01 T02011008  RH  024%=      5-min Rain = 0
KDC1 182032Z 09003KT 20/M01 A3001 RMK A01 T02021008  RH  024%=      5-min Rain = 0
KDC1 182033Z 08003KT 20/M01 A3001 RMK A01 T02011011  RH  024%=      5-min Rain = 0
KDC1 182034Z 10002KT 20/M01 A3001 RMK A01 T02001010  RH  024%=      5-min Rain = 0
KDC1 182035Z 12001KT 20/M01 A3001 RMK A01 T02011007  RH  025%=      5-min Rain = 0
KDC1 182036Z 12002KT 20/M01 A3001 RMK A01 T02021009  RH  024%=      5-min Rain = 0
KDC1 182037Z 12002KT 20/M01 A3001 RMK A01 T02031009  RH  024%=      5-min Rain = 0
KDC1 182038Z 12002KT 20/M01 A3001 RMK A01 T02031008  RH  024%=      5-min Rain = 0
KDC1 182039Z 12002KT 20/M01 A3001 RMK A01 T02031009  RH  024%=      5-min Rain = 0
KDC1 182040Z 10003KT 20/M01 A3001 RMK A01 T02031007  RH  024%=      5-min Rain = 0
KDC1 182041Z 09005KT 20/M01 A3001 RMK A01 T02031006  RH  025%=      5-min Rain = 0
KDC1 182042Z 11004KT 20/M00 A3001 RMK A01 T02041004  RH  025%=      5-min Rain = 0
KDC1 182043Z 12004KT 21/M00 A3001 RMK A01 T02051004  RH  025%=      5-min Rain = 0
KDC1 182044Z 10003KT 20/M01 A3001 RMK A01 T02041008  RH  024%=      5-min Rain = 0
KDC1 182045Z 08001KT 20/M01 A3001 RMK A01 T02041008  RH  024%=      5-min Rain = 0
KDC1 182046Z 08002KT 20/M01 A3001 RMK A01 T02041008  RH  024%=      5-min Rain = 0
KDC1 182047Z 12004KT 20/M00 A30 RMK A01 T02041004  RH  025%=      5-min Rain = 0
KDC1 182048Z 11005KT 21/M00 A30 RMK A01 T02051003  RH  025%=      5-min Rain = 0
KDC1 182049Z 09005KT 21/M01 A30 RMK A01 T02051007  RH  024%=      5-min Rain = 0
KDC1 182050Z 10004KT 20/M01 A30 RMK A01 T02041009  RH  024%=      5-min Rain = 0
KDC1 182051Z 11003KT 20/M01 A30 RMK A01 T02031010  RH  024%=      5-min Rain = 0
KDC1 182052Z 08001KT 20/M01 A30 RMK A01 T02021010  RH  024%=      5-min Rain = 0
KDC1 182053Z 07001KT 20/M01 A30 RMK A01 T02031009  RH  024%=      5-min Rain = 0
KDC1 182054Z 07002KT 20/M01 A30 RMK A01 T02031010  RH  024%=      5-min Rain = 0
KDC1 182055Z 11002KT 20/M01 A30 RMK A01 T02041009  RH  024%=      5-min Rain = 0
KDC1 182056Z 13002KT 20/M01 A30 RMK A01 T02041005  RH  025%=      5-min Rain = 0
KDC1 182057Z 12003KT 21/M01 A30 RMK A01 T02051005  RH  024%=      5-min Rain = 0
KDC1 182058Z 13004KT 21/M01 A30 RMK A01 T02061005  RH  024%=      5-min Rain = 0
KDC1 182059Z 11003KT 21/M01 A30 RMK A01 T02061005  RH  024%=      5-min Rain = 0
KDC1 182100Z 11003KT 21/M01 A30 RMK A01 T02051008  RH  024%=      5-min Rain = 0
KDC1 182101Z 13003KT 20/M00 A30 RMK A01 T02041004  RH  025%=      5-min Rain = 0
KDC1 182102Z 14004KT 21/M01 A30 RMK A01 T02051006  RH  024%=      5-min Rain = 0
KDC1 182103Z 15003KT 21/M01 A30 RMK A01 T02051008  RH  024%=      5-min Rain = 0
KDC1 182104Z 12004KT 21/M01 A30 RMK A01 T02061005  RH  024%=      5-min Rain = 0
KDC1 182105Z 12003KT 21/M01 A30 RMK A01 T02051010  RH  023%=      5-min Rain = 0
KDC1 182106Z 10002KT 21/M01 A30 RMK A01 T02051009  RH  024%=      5-min Rain = 0
KDC1 182107Z 14002KT 20/M01 A30 RMK A01 T02041008  RH  024%=      5-min Rain = 0
KDC1 182108Z 14005KT 21/M01 A30 RMK A01 T02051005  RH  024%=      5-min Rain = 0
KDC1 182109Z 14004KT 21/M01 A30 RMK A01 T02051009  RH  024%=      5-min Rain = 0
KDC1 182110Z 16002KT 20/M01 A30 RMK A01 T02041009  RH  024%=      5-min Rain = 0
KDC1 182111Z 13002KT 21/M01 A30 RMK A01 T02051007  RH  024%=      5-min Rain = 0
KDC1 182112Z 12003KT 21/M01 A30 RMK A01 T02061010  RH  023%=      5-min Rain = 0
KDC1 182113Z 14003KT 21/M01 A30 RMK A01 T02061010  RH  023%=      5-min Rain = 0
KDC1 182114Z 13003KT 21/M01 A30 RMK A01 T02061010  RH  023%=      5-min Rain = 0
KDC1 182115Z 13003KT 21/M01 A30 RMK A01 T02071010  RH  023%=      5-min Rain = 0
KDC1 182116Z 15002KT 21/M01 A30 RMK A01 T02071009  RH  023%=      5-min Rain = 0
KDC1 182117Z 14002KT 21/M01 A30 RMK A01 T02071010  RH  023%=      5-min Rain = 0
KDC1 182118Z 15001KT 21/M01 A30 RMK A01 T02081011  RH  023%=      5-min Rain = 0
KDC1 182119Z 12003KT 21/M01 A30 RMK A01 T02091009  RH  023%=      5-min Rain = 0
KDC1 182120Z 11002KT 21/M01 A30 RMK A01 T02091010  RH  023%=      5-min Rain = 0
KDC1 182121Z 09002KT 21/M01 A30 RMK A01 T02081012  RH  023%=      5-min Rain = 0
KDC1 182122Z 08002KT 21/M01 A30 RMK A01 T02061012  RH  023%=      5-min Rain = 0
KDC1 182123Z 07003KT 21/M01 A30 RMK A01 T02061009  RH  024%=      5-min Rain = 0
KDC1 182124Z 08004KT 21/M01 A30 RMK A01 T02071009  RH  023%=      5-min Rain = 0
KDC1 182125Z 07004KT 21/M01 A30 RMK A01 T02061011  RH  023%=      5-min Rain = 0
KDC1 182126Z 08003KT 21/M01 A30 RMK A01 T02061011  RH  023%=      5-min Rain = 0
KDC1 182127Z 10002KT 21/M01 A30 RMK A01 T02051009  RH  024%=      5-min Rain = 0
KDC1 182128Z 10002KT 21/M01 A30 RMK A01 T02071011  RH  023%=      5-min Rain = 0
KDC1 182129Z 10001KT 21/M01 A30 RMK A01 T02071011  RH  023%=      5-min Rain = 0
KDC1 182130Z 08001KT 21/M01 A30 RMK A01 T02081011  RH  023%=      5-min Rain = 0
KDC1 182131Z 13001KT 21/M01 A30 RMK A01 T02081009  RH  023%=      5-min Rain = 0
KDC1 182132Z 12002KT 21/M01 A30 RMK A01 T02081009  RH  023%=      5-min Rain = 0
KDC1 182133Z 11003KT 21/M01 A30 RMK A01 T02091007  RH  024%=      5-min Rain = 0
KDC1 182134Z 12003KT 21/M01 A30 RMK A01 T02091008  RH  023%=      5-min Rain = 0
KDC1 182135Z 12002KT 21/M01 A30 RMK A01 T02091005  RH  024%=      5-min Rain = 0
KDC1 182136Z 11003KT 21/M01 A30 RMK A01 T02091008  RH  023%=      5-min Rain = 0
KDC1 182137Z 13002KT 21/M01 A30 RMK A01 T02081009  RH  023%=      5-min Rain = 0
KDC1 182138Z 14002KT 21/M01 A30 RMK A01 T02081010  RH  023%=      5-min Rain = 0
KDC1 182139Z 16002KT 21/M01 A30 RMK A01 T02081011  RH  023%=      5-min Rain = 0
KDC1 182140Z 15002KT 21/M01 A30 RMK A01 T02091008  RH  023%=      5-min Rain = 0
KDC1 182141Z 12002KT 21/M01 A30 RMK A01 T02101006  RH  024%=      5-min Rain = 0
KDC1 182142Z 11002KT 21/M01 A30 RMK A01 T02111006  RH  023%=      5-min Rain = 0
KDC1 182143Z 11002KT 21/M01 A30 RMK A01 T02101010  RH  023%=      5-min Rain = 0
KDC1 182144Z 12002KT 21/M01 A30 RMK A01 T02091008  RH  023%=      5-min Rain = 0
KDC1 182145Z 12003KT 21/M00 A2999 RMK A01 T02101003  RH  024%=      5-min Rain = 0
KDC1 182146Z 12003KT 21/M01 A2999 RMK A01 T02101008  RH  023%=      5-min Rain = 0
KDC1 182147Z 12002KT 21/M01 A2999 RMK A01 T02091008  RH  023%=      5-min Rain = 0
KDC1 182148Z 11004KT 21/M01 A2999 RMK A01 T02091005  RH  024%=      5-min Rain = 0
KDC1 182149Z 12004KT 21/M00 A2999 RMK A01 T02101004  RH  024%=      5-min Rain = 0
KDC1 182150Z 11004KT 21/M00 A2999 RMK A01 T02101002  RH  024%=      5-min Rain = 0
KDC1 182151Z 11004KT 21/M00 A2999 RMK A01 T02091004  RH  024%=      5-min Rain = 0
KDC1 182152Z 12003KT 21/M01 A2999 RMK A01 T02081007  RH  024%=      5-min Rain = 0
KDC1 182153Z 12002KT 21/M01 A2999 RMK A01 T02081006  RH  024%=      5-min Rain = 0
KDC1 182154Z 11003KT 21/M00 A2999 RMK A01 T02081002  RH  025%=      5-min Rain = 0
KDC1 182155Z 12003KT 21/M01 A2999 RMK A01 T02081006  RH  024%=      5-min Rain = 0
KDC1 182156Z 12003KT 21/M01 A2999 RMK A01 T02071007  RH  024%=      5-min Rain = 0
KDC1 182157Z 12002KT 21/M01 A2999 RMK A01 T02081006  RH  024%=      5-min Rain = 0
KDC1 182158Z 12003KT 21/M00 A2999 RMK A01 T02071003  RH  024%=      5-min Rain = 0
KDC1 182159Z 12002KT 21/M01 A2999 RMK A01 T02081007  RH  024%=      5-min Rain = 0
KDC1 182200Z 10002KT 21/M01 A2999 RMK A01 T02081008  RH  023%=      5-min Rain = 0
KDC1 182201Z 09002KT 21/M01 A2999 RMK A01 T02081007  RH  024%=      5-min Rain = 0
KDC1 182202Z 11003KT 21/M00 A2999 RMK A01 T02091004  RH  024%=      5-min Rain = 0
KDC1 182203Z 11002KT 21/M01 A2999 RMK A01 T02091008  RH  023%=      5-min Rain = 0
KDC1 182204Z 09002KT 21/M01 A2999 RMK A01 T02091005  RH  024%=      5-min Rain = 0
KDC1 182205Z 08003KT 21/M01 A2999 RMK A01 T02101006  RH  024%=      5-min Rain = 0
KDC1 182206Z 09004KT 21/M01 A2999 RMK A01 T02101006  RH  024%=      5-min Rain = 0
KDC1 182207Z 09004KT 21/M01 A2999 RMK A01 T02101009  RH  023%=      5-min Rain = 0
KDC1 182208Z 11004KT 21/M01 A2999 RMK A01 T02091009  RH  023%=      5-min Rain = 0
KDC1 182209Z 11004KT 21/M01 A2999 RMK A01 T02081008  RH  024%=      5-min Rain = 0
KDC1 182210Z 10003KT 21/M01 A2999 RMK A01 T02081009  RH  023%=      5-min Rain = 0
KDC1 182211Z 08003KT 21/M01 A2999 RMK A01 T02081008  RH  023%=      5-min Rain = 0
KDC1 182212Z 09003KT 21/M01 A2999 RMK A01 T02081009  RH  023%=      5-min Rain = 0
KDC1 182213Z 11004KT 21/M01 A2999 RMK A01 T02081009  RH  023%=      5-min Rain = 0
KDC1 182214Z 10003KT 21/M01 A2999 RMK A01 T02081009  RH  023%=      5-min Rain = 0
KDC1 182215Z 08004KT 21/M01 A2999 RMK A01 T02091006  RH  024%=      5-min Rain = 0
KDC1 182216Z 08004KT 21/M01 A2999 RMK A01 T02091010  RH  023%=      5-min Rain = 0
KDC1 182217Z 09003KT 21/M01 A2999 RMK A01 T02091007  RH  023%=      5-min Rain = 0
KDC1 182218Z 08003KT 21/M01 A2999 RMK A01 T02091008  RH  023%=      5-min Rain = 0
KDC1 182219Z 10004KT 21/M01 A2999 RMK A01 T02101009  RH  023%=      5-min Rain = 0
KDC1 182220Z 10003KT 21/M01 A2999 RMK A01 T02101009  RH  023%=      5-min Rain = 0
KDC1 182221Z 10003KT 21/M01 A2999 RMK A01 T02091011  RH  023%=      5-min Rain = 0
KDC1 182222Z 10004KT 21/M01 A2999 RMK A01 T02081010  RH  023%=      5-min Rain = 0
KDC1 182223Z 11003KT 21/M01 A2999 RMK A01 T02081010  RH  023%=      5-min Rain = 0
KDC1 182224Z 11004KT 21/M00 A2999 RMK A01 T02081001  RH  025%=      5-min Rain = 0
KDC1 182225Z 11004KT 21/00 A2999 RMK A01 T02080000  RH  025%=      5-min Rain = 0
KDC1 182226Z 11003KT 21/M00 A2999 RMK A01 T02081001  RH  025%=      5-min Rain = 0
KDC1 182227Z 11004KT 21/01 A2999 RMK A01 T02080005  RH  026%=      5-min Rain = 0
KDC1 182228Z 08003KT 21/00 A2999 RMK A01 T02080000  RH  025%=      5-min Rain = 0
KDC1 182229Z 08004KT 21/M01 A2999 RMK A01 T02081008  RH  024%=      5-min Rain = 0
KDC1 182230Z 09003KT 21/M00 A2999 RMK A01 T02081004  RH  024%=      5-min Rain = 0
KDC1 182231Z 08004KT 21/M01 A2999 RMK A01 T02081008  RH  023%=      5-min Rain = 0
KDC1 182232Z 07004KT 21/M01 A2999 RMK A01 T02081011  RH  023%=      5-min Rain = 0
KDC1 182233Z 08004KT 21/M01 A2999 RMK A01 T02081011  RH  023%=      5-min Rain = 0
KDC1 182234Z 08004KT 21/M01 A2999 RMK A01 T02081009  RH  023%=      5-min Rain = 0
KDC1 182235Z 08003KT 21/M01 A2999 RMK A01 T02081010  RH  023%=      5-min Rain = 0
KDC1 182236Z 08003KT 21/M01 A2999 RMK A01 T02081010  RH  023%=      5-min Rain = 0
KDC1 182237Z 08003KT 21/M01 A2999 RMK A01 T02081011  RH  023%=      5-min Rain = 0
KDC1 182238Z 10002KT 21/M01 A2999 RMK A01 T02081006  RH  024%=      5-min Rain = 0
KDC1 182239Z 10002KT 21/00 A2999 RMK A01 T02080003  RH  025%=      5-min Rain = 0
KDC1 182240Z 09002KT 21/01 A2999 RMK A01 T02080008  RH  026%=      5-min Rain = 0
KDC1 182241Z 08004KT 21/01 A2999 RMK A01 T02080005  RH  026%=      5-min Rain = 0
KDC1 182242Z 08005KT 21/M00 A2999 RMK A01 T02081003  RH  024%=      5-min Rain = 0
KDC1 182243Z 08005KT 21/M01 A2999 RMK A01 T02081005  RH  024%=      5-min Rain = 0
KDC1 182244Z 08004KT 21/M01 A2999 RMK A01 T02071007  RH  024%=      5-min Rain = 0
KDC1 182245Z 08004KT 21/M01 A2999 RMK A01 T02071006  RH  024%=      5-min Rain = 0
KDC1 182246Z 08005KT 21/M01 A2999 RMK A01 T02071005  RH  024%=      5-min Rain = 0
KDC1 182247Z 08004KT 21/M00 A2999 RMK A01 T02071004  RH  024%=      5-min Rain = 0
KDC1 182248Z 08003KT 21/M00 A2999 RMK A01 T02071004  RH  024%=      5-min Rain = 0
KDC1 182249Z 09002KT 21/M00 A2999 RMK A01 T02071003  RH  024%=      5-min Rain = 0
KDC1 182250Z 09003KT 21/M01 A2999 RMK A01 T02071005  RH  024%=      5-min Rain = 0
KDC1 182251Z 10003KT 21/M01 A2999 RMK A01 T02071006  RH  024%=      5-min Rain = 0
KDC1 182252Z 09003KT 21/M01 A2999 RMK A01 T02071005  RH  024%=      5-min Rain = 0
KDC1 182253Z 09003KT 21/M00 A2999 RMK A01 T02071002  RH  025%=      5-min Rain = 0
KDC1 182254Z 09003KT 21/M01 A2999 RMK A01 T02071005  RH  024%=      5-min Rain = 0
KDC1 182255Z 10003KT 21/M01 A2999 RMK A01 T02071008  RH  024%=      5-min Rain = 0
KDC1 182256Z 10003KT 21/M00 A2999 RMK A01 T02071004  RH  024%=      5-min Rain = 0
KDC1 182257Z 09003KT 21/M01 A2999 RMK A01 T02061010  RH  023%=      5-min Rain = 0
KDC1 182258Z 10003KT 21/00 A2999 RMK A01 T02070004  RH  026%=      5-min Rain = 0
KDC1 182259Z 10003KT 21/01 A2999 RMK A01 T02060005  RH  026%=      5-min Rain = 0
KDC1 182300Z 10003KT 21/M00 A2999 RMK A01 T02061003  RH  025%=      5-min Rain = 0
KDC1 182301Z 10003KT 21/M00 A2999 RMK A01 T02051004  RH  025%=      5-min Rain = 0
KDC1 182302Z 10003KT 21/M00 A2999 RMK A01 T02051004  RH  025%=      5-min Rain = 0
KDC1 182303Z 10002KT 21/M00 A2999 RMK A01 T02051001  RH  025%=      5-min Rain = 0
KDC1 182304Z 10002KT 21/00 A2999 RMK A01 T02050003  RH  026%=      5-min Rain = 0
KDC1 182305Z 10002KT 21/01 A2999 RMK A01 T02050008  RH  027%=      5-min Rain = 0
KDC1 182306Z 10002KT 20/01 A2999 RMK A01 T02040013  RH  028%=      5-min Rain = 0
KDC1 182307Z 11003KT 20/02 A2999 RMK A01 T02030021  RH  030%=      5-min Rain = 0
KDC1 182308Z 10003KT 20/02 A2999 RMK A01 T02030022  RH  030%=      5-min Rain = 0
KDC1 182309Z 10002KT 20/02 A2999 RMK A01 T02020018  RH  030%=      5-min Rain = 0
KDC1 182310Z 10002KT 20/01 A2999 RMK A01 T02010014  RH  029%=      5-min Rain = 0
KDC1 182311Z 10001KT 20/01 A2999 RMK A01 T02010012  RH  028%=      5-min Rain = 0
KDC1 182312Z 10002KT 20/01 A2999 RMK A01 T02010012  RH  028%=      5-min Rain = 0
KDC1 182313Z 10002KT 20/02 A2999 RMK A01 T02010016  RH  029%=      5-min Rain = 0
KDC1 182314Z 10002KT 20/01 A2999 RMK A01 T02010012  RH  028%=      5-min Rain = 0
KDC1 182315Z 10002KT 20/01 A2999 RMK A01 T02010010  RH  028%=      5-min Rain = 0
KDC1 182316Z 10002KT 20/01 A2999 RMK A01 T02010006  RH  027%=      5-min Rain = 0
KDC1 182317Z 10002KT 20/01 A2999 RMK A01 T02010006  RH  027%=      5-min Rain = 0
KDC1 182318Z 10002KT 20/00 A2999 RMK A01 T02010004  RH  027%=      5-min Rain = 0
KDC1 182319Z 09002KT 20/01 A2999 RMK A01 T02010005  RH  027%=      5-min Rain = 0
KDC1 182320Z 09002KT 20/01 A2999 RMK A01 T02000010  RH  028%=      5-min Rain = 0
KDC1 182321Z 09002KT 20/01 A2999 RMK A01 T01990013  RH  029%=      5-min Rain = 0
KDC1 182322Z 08002KT 20/01 A2999 RMK A01 T01980010  RH  029%=      5-min Rain = 0
KDC1 182323Z 08002KT 20/00 A2999 RMK A01 T01970004  RH  027%=      5-min Rain = 0
KDC1 182324Z 07002KT 20/00 A2999 RMK A01 T01970002  RH  027%=      5-min Rain = 0
KDC1 182325Z 07002KT 20/00 A2999 RMK A01 T01960003  RH  027%=      5-min Rain = 0
KDC1 182326Z 06002KT 20/00 A2999 RMK A01 T01960003  RH  027%=      5-min Rain = 0
KDC1 182327Z 07002KT 20/01 A2999 RMK A01 T01970005  RH  028%=      5-min Rain = 0
KDC1 182328Z 07003KT 20/01 A2999 RMK A01 T01960006  RH  028%=      5-min Rain = 0
KDC1 182329Z 07003KT 20/00 A2999 RMK A01 T01960003  RH  027%=      5-min Rain = 0
KDC1 182330Z 07003KT 20/00 A2999 RMK A01 T01960002  RH  027%=      5-min Rain = 0
KDC1 182331Z 07003KT 20/00 A2999 RMK A01 T01960002  RH  027%=      5-min Rain = 0
KDC1 182332Z 07003KT 20/00 A2999 RMK A01 T01960003  RH  027%=      5-min Rain = 0
KDC1 182333Z 07003KT 20/00 A2999 RMK A01 T01950004  RH  028%=      5-min Rain = 0
KDC1 182334Z 08002KT 20/01 A2999 RMK A01 T01950005  RH  028%=      5-min Rain = 0
KDC1 182335Z 08002KT 20/01 A2999 RMK A01 T01950005  RH  028%=      5-min Rain = 0
KDC1 182336Z 08002KT 19/01 A2999 RMK A01 T01940005  RH  028%=      5-min Rain = 0
KDC1 182337Z 09002KT 19/01 A2999 RMK A01 T01940006  RH  028%=      5-min Rain = 0
KDC1 182338Z 10002KT 19/01 A2999 RMK A01 T01940005  RH  028%=      5-min Rain = 0
KDC1 182339Z 11002KT 19/00 A2999 RMK A01 T01930003  RH  028%=      5-min Rain = 0
KDC1 182340Z 11002KT 19/00 A2999 RMK A01 T01920003  RH  028%=      5-min Rain = 0
KDC1 182341Z 11002KT 19/01 A2999 RMK A01 T01920005  RH  029%=      5-min Rain = 0
KDC1 182342Z 11002KT 19/01 A2999 RMK A01 T01910005  RH  029%=      5-min Rain = 0
KDC1 182343Z 11002KT 19/00 A2999 RMK A01 T01910003  RH  028%=      5-min Rain = 0
KDC1 182344Z 10002KT 19/00 A2999 RMK A01 T01900004  RH  029%=      5-min Rain = 0
KDC1 182345Z 10002KT 19/01 A2999 RMK A01 T01900007  RH  029%=      5-min Rain = 0
KDC1 182346Z 10002KT 19/01 A2999 RMK A01 T01890010  RH  030%=      5-min Rain = 0
KDC1 182347Z 10002KT 19/01 A2999 RMK A01 T01880011  RH  031%=      5-min Rain = 0
KDC1 182348Z 09002KT 19/01 A2999 RMK A01 T01870014  RH  031%=      5-min Rain = 0
KDC1 182349Z 09002KT 19/01 A2999 RMK A01 T01860014  RH  032%=      5-min Rain = 0
KDC1 182350Z 09002KT 19/02 A2999 RMK A01 T01850015  RH  032%=      5-min Rain = 0
KDC1 182351Z 09002KT 18/02 A2999 RMK A01 T01840016  RH  032%=      5-min Rain = 0
KDC1 182352Z 09002KT 18/02 A2999 RMK A01 T01830015  RH  033%=      5-min Rain = 0
KDC1 182353Z 10002KT 18/02 A2999 RMK A01 T01820015  RH  033%=      5-min Rain = 0
KDC1 182354Z 10002KT 18/01 A2999 RMK A01 T01810014  RH  033%=      5-min Rain = 0
KDC1 182355Z 10002KT 18/01 A2999 RMK A01 T01790012  RH  032%=      5-min Rain = 0
KDC1 182356Z 11002KT 18/01 A2999 RMK A01 T01780011  RH  033%=      5-min Rain = 0
KDC1 182357Z 11002KT 18/01 A2999 RMK A01 T01770009  RH  032%=      5-min Rain = 0
KDC1 182358Z 11002KT 18/01 A2999 RMK A01 T01770007  RH  032%=      5-min Rain = 0
KDC1 182359Z 11002KT 18/01 A2999 RMK A01 T01770006  RH  032%=      5-min Rain = 0
KDC1 190000Z 11002KT 18/00 A2999 RMK A01 T01760004  RH  031%=      5-min Rain = 0
KDC1 190001Z 10002KT 18/00 A2999 RMK A01 T01760003  RH  031%=      5-min Rain = 0
KDC1 190002Z 10002KT 18/01 A2999 RMK A01 T01750005  RH  032%=      5-min Rain = 0
KDC1 190003Z 10002KT 17/00 A2999 RMK A01 T01740003  RH  031%=      5-min Rain = 0
KDC1 190004Z 09002KT 17/00 A30 RMK A01 T017300-0  RH  031%=      5-min Rain = 0
KDC1 190005Z 09002KT 17/M00 A30 RMK A01 T01721004  RH  030%=      5-min Rain = 0
KDC1 190006Z 09002KT 17/M00 A30 RMK A01 T01711003  RH  031%=      5-min Rain = 0
KDC1 190007Z 09002KT 17/M00 A30 RMK A01 T01691003  RH  031%=      5-min Rain = 0
KDC1 190008Z 10001KT 17/M01 A30 RMK A01 T01681005  RH  031%=      5-min Rain = 0
KDC1 190009Z 10001KT 17/M00 A30 RMK A01 T01671004  RH  031%=      5-min Rain = 0
KDC1 190010Z 10001KT 17/M00 A30 RMK A01 T01671003  RH  031%=      5-min Rain = 0
KDC1 190011Z 10001KT 17/M00 A30 RMK A01 T01671002  RH  032%=      5-min Rain = 0
KDC1 190012Z 10002KT 17/M00 A30 RMK A01 T01671003  RH  032%=      5-min Rain = 0
KDC1 190013Z 10001KT 17/M01 A30 RMK A01 T01661005  RH  031%=      5-min Rain = 0
KDC1 190014Z 10002KT 17/M01 A30 RMK A01 T01661008  RH  030%=      5-min Rain = 0
KDC1 190015Z 10001KT 17/M01 A30 RMK A01 T01661009  RH  030%=      5-min Rain = 0
KDC1 190016Z 10001KT 17/M01 A30 RMK A01 T01661009  RH  030%=      5-min Rain = 0
KDC1 190017Z 10001KT 17/M01 A30 RMK A01 T01661009  RH  030%=      5-min Rain = 0
KDC1 190018Z 10002KT 17/M01 A30 RMK A01 T01651007  RH  031%=      5-min Rain = 0
KDC1 190019Z 10002KT 17/M00 A30 RMK A01 T01651004  RH  032%=      5-min Rain = 0
KDC1 190020Z 10001KT 16/M00 A30 RMK A01 T01631003  RH  032%=      5-min Rain = 0
KDC1 190021Z 11001KT 16/M01 A30 RMK A01 T01621006  RH  032%=      5-min Rain = 0
KDC1 190022Z 12001KT 16/M01 A30 RMK A01 T01601008  RH  032%=      5-min Rain = 0
KDC1 190023Z 14001KT 16/M01 A30 RMK A01 T01591010  RH  032%=      5-min Rain = 0
KDC1 190024Z 14001KT 16/M01 A30 RMK A01 T01571009  RH  032%=      5-min Rain = 0
KDC1 190025Z 14001KT 16/M01 A30 RMK A01 T01561008  RH  033%=      5-min Rain = 0
KDC1 190026Z 14001KT 16/M00 A30 RMK A01 T01551004  RH  034%=      5-min Rain = 0
KDC1 190027Z 14001KT 15/M00 A30 RMK A01 T01541001  RH  035%=      5-min Rain = 0
KDC1 190028Z 17001KT 15/01 A30 RMK A01 T01510010  RH  038%=      5-min Rain = 0
KDC1 190029Z 21001KT 15/01 A30 RMK A01 T01450009  RH  040%=      5-min Rain = 0
KDC1 190030Z 20002KT 14/01 A30 RMK A01 T01430008  RH  040%=      5-min Rain = 0
KDC1 190031Z 20002KT 14/01 A30 RMK A01 T01430008  RH  040%=      5-min Rain = 0
KDC1 190032Z 20002KT 14/01 A30 RMK A01 T01430007  RH  039%=      5-min Rain = 0
KDC1 190033Z 19002KT 14/01 A30 RMK A01 T01440007  RH  039%=      5-min Rain = 0
KDC1 190034Z 19002KT 14/01 A30 RMK A01 T01430010  RH  040%=      5-min Rain = 0
KDC1 190035Z 18002KT 14/01 A30 RMK A01 T01410011  RH  041%=      5-min Rain = 0
KDC1 190036Z 17002KT 14/01 A30 RMK A01 T01390012  RH  042%=      5-min Rain = 0
KDC1 190037Z 20001KT 14/01 A30 RMK A01 T01380012  RH  042%=      5-min Rain = 0
KDC1 190038Z 20001KT 14/01 A30 RMK A01 T01360012  RH  043%=      5-min Rain = 0
KDC1 190039Z 19001KT 13/01 A30 RMK A01 T01340011  RH  043%=      5-min Rain = 0
KDC1 190040Z 18001KT 13/01 A30 RMK A01 T01330014  RH  044%=      5-min Rain = 0
KDC1 190041Z 16001KT 13/02 A30 RMK A01 T01300015  RH  046%=      5-min Rain = 0
KDC1 190042Z 15001KT 13/02 A30 RMK A01 T01290015  RH  046%=      5-min Rain = 0
KDC1 190043Z 14001KT 13/01 A30 RMK A01 T01290013  RH  045%=      5-min Rain = 0
KDC1 190044Z 14001KT 13/00 A30 RMK A01 T01300004  RH  042%=      5-min Rain = 0
KDC1 190045Z 14001KT 13/00 A30 RMK A01 T01290001  RH  041%=      5-min Rain = 0
KDC1 190046Z 14000KT 13/00 A30 RMK A01 T01270000  RH  042%=      5-min Rain = 0
KDC1 190047Z 00000KT 12/01 A30 RMK A01 T01240005  RH  044%=      5-min Rain = 0
KDC1 190048Z 00000KT 12/00 A30 RMK A01 T01240004  RH  044%=      5-min Rain = 0
KDC1 190049Z 00000KT 12/00 A30 RMK A01 T01230002  RH  043%=      5-min Rain = 0
KDC1 190050Z 00000KT 12/00 A30 RMK A01 T01220002  RH  044%=      5-min Rain = 0
KDC1 190051Z 16000KT 12/00 A3001 RMK A01 T01220003  RH  044%=      5-min Rain = 0
KDC1 190052Z 17001KT 13/01 A3001 RMK A01 T01250005  RH  044%=      5-min Rain = 0
KDC1 190053Z 16001KT 13/01 A3001 RMK A01 T01280005  RH  043%=      5-min Rain = 0
KDC1 190054Z 15001KT 13/01 A3001 RMK A01 T01290005  RH  043%=      5-min Rain = 0
KDC1 190055Z 14001KT 13/01 A3001 RMK A01 T01300005  RH  042%=      5-min Rain = 0
KDC1 190056Z 14001KT 13/01 A3001 RMK A01 T01290005  RH  043%=      5-min Rain = 0
KDC1 190057Z 13001KT 13/01 A3001 RMK A01 T01270005  RH  043%=      5-min Rain = 0
KDC1 190058Z 13001KT 12/01 A3001 RMK A01 T01240005  RH  044%=      5-min Rain = 0
KDC1 190059Z 13001KT 12/01 A3001 RMK A01 T01180005  RH  046%=      5-min Rain = 0
KDC1 190100Z 13001KT 11/01 A3001 RMK A01 T01140007  RH  047%=      5-min Rain = 0
KDC1 190101Z 12001KT 11/01 A3001 RMK A01 T01130012  RH  050%=      5-min Rain = 0
KDC1 190102Z 12000KT 11/02 A3001 RMK A01 T01120015  RH  051%=      5-min Rain = 0
KDC1 190103Z 00000KT 11/01 A3001 RMK A01 T01120012  RH  050%=      5-min Rain = 0
KDC1 190104Z 00000KT 11/01 A3001 RMK A01 T01070007  RH  050%=      5-min Rain = 0
KDC1 190105Z 25001KT 10/01 A3001 RMK A01 T01010005  RH  051%=      5-min Rain = 0
KDC1 190106Z 23005KT 10/01 A3001 RMK A01 T01000006  RH  052%=      5-min Rain = 0
KDC1 190107Z 23003KT 11/01 A3001 RMK A01 T01080008  RH  050%=      5-min Rain = 0
KDC1 190108Z 23004KT 11/01 A3001 RMK A01 T01120011  RH  050%=      5-min Rain = 0
KDC1 190109Z 23004KT 11/01 A3001 RMK A01 T01120010  RH  050%=      5-min Rain = 0
KDC1 190110Z 23004KT 11/01 A3001 RMK A01 T01110010  RH  050%=      5-min Rain = 0
KDC1 190111Z 23004KT 11/01 A3001 RMK A01 T01100010  RH  050%=      5-min Rain = 0
KDC1 190112Z 23004KT 11/01 A3001 RMK A01 T01090008  RH  050%=      5-min Rain = 0
KDC1 190113Z 23004KT 11/01 A3001 RMK A01 T01110007  RH  049%=      5-min Rain = 0
KDC1 190114Z 23004KT 11/01 A3001 RMK A01 T01130007  RH  048%=      5-min Rain = 0
KDC1 190115Z 23004KT 11/01 A3001 RMK A01 T01140007  RH  048%=      5-min Rain = 0
KDC1 190116Z 23004KT 12/01 A3001 RMK A01 T01150008  RH  048%=      5-min Rain = 0
KDC1 190117Z 23004KT 11/01 A3001 RMK A01 T01140010  RH  049%=      5-min Rain = 0
KDC1 190118Z 23004KT 11/01 A3001 RMK A01 T01120011  RH  050%=      5-min Rain = 0
KDC1 190119Z 23004KT 11/01 A3001 RMK A01 T01110012  RH  051%=      5-min Rain = 0
KDC1 190120Z 23004KT 11/01 A3001 RMK A01 T01080013  RH  052%=      5-min Rain = 0
KDC1 190121Z 23003KT 11/01 A3001 RMK A01 T01050013  RH  053%=      5-min Rain = 0
KDC1 190122Z 23004KT 10/01 A3001 RMK A01 T01030013  RH  053%=      5-min Rain = 0
KDC1 190123Z 24004KT 10/01 A3001 RMK A01 T01020011  RH  053%=      5-min Rain = 0
KDC1 190124Z 24004KT 10/01 A3001 RMK A01 T01020008  RH  052%=      5-min Rain = 0
KDC1 190125Z 24004KT 11/01 A3001 RMK A01 T01050009  RH  051%=      5-min Rain = 0
KDC1 190126Z 25004KT 11/01 A3001 RMK A01 T01060010  RH  052%=      5-min Rain = 0
KDC1 190127Z 25005KT 10/01 A3001 RMK A01 T01020011  RH  053%=      5-min Rain = 0
KDC1 190128Z 25005KT 10/01 A3001 RMK A01 T00980009  RH  054%=      5-min Rain = 0
KDC1 190129Z 25005KT 09/01 A3001 RMK A01 T00940009  RH  055%=      5-min Rain = 0
KDC1 190130Z 25005KT 09/01 A3001 RMK A01 T00920009  RH  056%=      5-min Rain = 0
KDC1 190131Z 25005KT 09/01 A3001 RMK A01 T00900008  RH  057%=      5-min Rain = 0
KDC1 190132Z 26005KT 09/01 A3001 RMK A01 T00880007  RH  057%=      5-min Rain = 0
KDC1 190133Z 26006KT 09/01 A3001 RMK A01 T00850007  RH  058%=      5-min Rain = 0
KDC1 190134Z 26006KT 08/01 A3001 RMK A01 T00830007  RH  059%=      5-min Rain = 0
KDC1 190135Z 26006KT 08/01 A3001 RMK A01 T00810007  RH  060%=      5-min Rain = 0
KDC1 190136Z 26006KT 08/01 A3001 RMK A01 T00790007  RH  060%=      5-min Rain = 0
KDC1 190137Z 25006KT 08/01 A3001 RMK A01 T00790008  RH  061%=      5-min Rain = 0
KDC1 190138Z 25006KT 08/01 A3001 RMK A01 T00800008  RH  061%=      5-min Rain = 0
KDC1 190139Z 26006KT 08/01 A3001 RMK A01 T00820009  RH  060%=      5-min Rain = 0
KDC1 190140Z 27006KT 08/01 A3001 RMK A01 T00830009  RH  060%=      5-min Rain = 0
KDC1 190141Z 28006KT 08/01 A3001 RMK A01 T00830008  RH  059%=      5-min Rain = 0
KDC1 190142Z 29006KT 08/01 A3001 RMK A01 T00830007  RH  059%=      5-min Rain = 0
KDC1 190143Z 29006KT 08/01 A3002 RMK A01 T00820005  RH  058%=      5-min Rain = 0
KDC1 190144Z 29007KT 08/00 A3002 RMK A01 T00810004  RH  058%=      5-min Rain = 0
KDC1 190145Z 29007KT 08/00 A3002 RMK A01 T00810004  RH  058%=      5-min Rain = 0
KDC1 190146Z 29007KT 08/00 A3002 RMK A01 T00810004  RH  058%=      5-min Rain = 0
KDC1 190147Z 29008KT 08/00 A3002 RMK A01 T00810003  RH  058%=      5-min Rain = 0
KDC1 190148Z 30007KT 08/00 A3002 RMK A01 T00820004  RH  058%=      5-min Rain = 0
KDC1 190149Z 30006KT 08/00 A3002 RMK A01 T00820004  RH  058%=      5-min Rain = 0
KDC1 190150Z 29006KT 08/00 A3002 RMK A01 T00820004  RH  058%=      5-min Rain = 0
KDC1 190151Z 29006KT 08/00 A3001 RMK A01 T00830004  RH  057%=      5-min Rain = 0
KDC1 190152Z 29007KT 09/00 A3001 RMK A01 T00860004  RH  056%=      5-min Rain = 0
KDC1 190153Z 28007KT 09/00 A3001 RMK A01 T00890004  RH  055%=      5-min Rain = 0
KDC1 190154Z 28007KT 09/00 A3002 RMK A01 T00910004  RH  054%=      5-min Rain = 0
KDC1 190155Z 29007KT 09/00 A3001 RMK A01 T00930004  RH  054%=      5-min Rain = 0
KDC1 190156Z 28007KT 09/01 A3001 RMK A01 T00940005  RH  054%=      5-min Rain = 0
KDC1 190157Z 29007KT 09/01 A3001 RMK A01 T00940005  RH  054%=      5-min Rain = 0
KDC1 190158Z 29007KT 10/01 A3001 RMK A01 T00950005  RH  054%=      5-min Rain = 0
KDC1 190159Z 29007KT 10/01 A3001 RMK A01 T00950006  RH  054%=      5-min Rain = 0
KDC1 190200Z 29007KT 09/01 A3001 RMK A01 T00930007  RH  055%=      5-min Rain = 0
KDC1 190201Z 29007KT 09/01 A3001 RMK A01 T00910007  RH  056%=      5-min Rain = 0
KDC1 190202Z 28007KT 09/01 A3001 RMK A01 T00890006  RH  056%=      5-min Rain = 0
KDC1 190203Z 28006KT 09/00 A3001 RMK A01 T00880004  RH  056%=      5-min Rain = 0
KDC1 190204Z 28005KT 09/00 A3002 RMK A01 T00870004  RH  056%=      5-min Rain = 0
KDC1 190205Z 28005KT 09/01 A3002 RMK A01 T00870006  RH  057%=      5-min Rain = 0
KDC1 190206Z 28005KT 09/01 A3002 RMK A01 T00860006  RH  057%=      5-min Rain = 0
KDC1 190207Z 28006KT 09/01 A3002 RMK A01 T00850005  RH  057%=      5-min Rain = 0
KDC1 190208Z 29006KT 08/00 A3002 RMK A01 T00840004  RH  057%=      5-min Rain = 0
KDC1 190209Z 29006KT 08/00 A3002 RMK A01 T00820002  RH  057%=      5-min Rain = 0
KDC1 190210Z 29006KT 08/00 A3002 RMK A01 T00810000  RH  057%=      5-min Rain = 0
KDC1 190211Z 29007KT 08/M00 A3002 RMK A01 T00811001  RH  056%=      5-min Rain = 0
KDC1 190212Z 29007KT 08/M00 A3002 RMK A01 T00811002  RH  056%=      5-min Rain = 0
KDC1 190213Z 29006KT 08/M00 A3002 RMK A01 T00811002  RH  056%=      5-min Rain = 0
KDC1 190214Z 30006KT 08/M00 A3002 RMK A01 T00811002  RH  056%=      5-min Rain = 0
KDC1 190215Z 30005KT 08/M00 A3002 RMK A01 T00801003  RH  056%=      5-min Rain = 0
KDC1 190216Z 31004KT 08/M00 A3002 RMK A01 T00801003  RH  056%=      5-min Rain = 0
KDC1 190217Z 31004KT 08/M00 A3002 RMK A01 T00791003  RH  056%=      5-min Rain = 0
KDC1 190218Z 30005KT 08/M00 A3002 RMK A01 T00791003  RH  056%=      5-min Rain = 0
KDC1 190219Z 29006KT 08/M00 A3002 RMK A01 T00791003  RH  056%=      5-min Rain = 0
KDC1 190220Z 28006KT 08/M00 A3002 RMK A01 T00791003  RH  056%=      5-min Rain = 0
KDC1 190221Z 28006KT 08/M00 A3002 RMK A01 T00791002  RH  057%=      5-min Rain = 0
KDC1 190222Z 29007KT 08/M00 A3002 RMK A01 T00791001  RH  057%=      5-min Rain = 0
KDC1 190223Z 28006KT 08/M00 A3002 RMK A01 T00801001  RH  057%=      5-min Rain = 0
KDC1 190224Z 28005KT 08/00 A3002 RMK A01 T00800000  RH  057%=      5-min Rain = 0
KDC1 190225Z 28005KT 08/00 A3002 RMK A01 T00800000  RH  057%=      5-min Rain = 0
KDC1 190226Z 28006KT 08/00 A3002 RMK A01 T00800000  RH  057%=      5-min Rain = 0
KDC1 190227Z 28006KT 08/00 A3002 RMK A01 T00800000  RH  057%=      5-min Rain = 0
KDC1 190228Z 28006KT 08/00 A3002 RMK A01 T007900-0  RH  057%=      5-min Rain = 0
KDC1 190229Z 28007KT 08/M00 A3002 RMK A01 T00781001  RH  057%=      5-min Rain = 0
KDC1 190230Z 29007KT 08/M00 A3002 RMK A01 T00771002  RH  057%=      5-min Rain = 0
KDC1 190231Z 29007KT 08/M00 A3002 RMK A01 T00771004  RH  057%=      5-min Rain = 0
KDC1 190232Z 29007KT 08/M00 A3002 RMK A01 T00771004  RH  057%=      5-min Rain = 0
KDC1 190233Z 29007KT 08/M01 A3002 RMK A01 T00761005  RH  056%=      5-min Rain = 0
KDC1 190234Z 29006KT 08/M01 A3002 RMK A01 T00771006  RH  056%=      5-min Rain = 0
KDC1 190235Z 29006KT 08/M00 A3002 RMK A01 T00771004  RH  056%=      5-min Rain = 0
KDC1 190236Z 29006KT 08/M00 A3002 RMK A01 T00761004  RH  057%=      5-min Rain = 0
KDC1 190237Z 29006KT 08/M01 A3002 RMK A01 T00761005  RH  057%=      5-min Rain = 0
KDC1 190238Z 29006KT 08/M01 A3002 RMK A01 T00761005  RH  056%=      5-min Rain = 0
KDC1 190239Z 29006KT 08/M01 A3002 RMK A01 T00761006  RH  056%=      5-min Rain = 0
KDC1 190240Z 29006KT 08/M01 A3002 RMK A01 T00771006  RH  055%=      5-min Rain = 0
KDC1 190241Z 29007KT 08/M01 A3002 RMK A01 T00791006  RH  055%=      5-min Rain = 0
KDC1 190242Z 29007KT 08/M01 A3002 RMK A01 T00811006  RH  054%=      5-min Rain = 0
KDC1 190243Z 30007KT 08/M01 A3002 RMK A01 T00821005  RH  054%=      5-min Rain = 0
KDC1 190244Z 30008KT 08/M01 A3002 RMK A01 T00821005  RH  054%=      5-min Rain = 0
KDC1 190245Z 30008KT 08/M01 A3002 RMK A01 T00831005  RH  054%=      5-min Rain = 0
KDC1 190246Z 29008KT 08/M01 A3002 RMK A01 T00841005  RH  054%=      5-min Rain = 0
KDC1 190247Z 30008KT 09/M01 A3002 RMK A01 T00851005  RH  053%=      5-min Rain = 0
KDC1 190248Z 30008KT 09/M01 A3002 RMK A01 T00851005  RH  053%=      5-min Rain = 0
KDC1 190249Z 29008KT 09/M01 A3002 RMK A01 T00851005  RH  053%=      5-min Rain = 0
KDC1 190250Z 29008KT 09/M01 A3002 RMK A01 T00861005  RH  053%=      5-min Rain = 0
KDC1 190251Z 29008KT 09/M01 A3002 RMK A01 T00871005  RH  053%=      5-min Rain = 0
KDC1 190252Z 30008KT 09/M00 A3003 RMK A01 T00871004  RH  053%=      5-min Rain = 0
KDC1 190253Z 30008KT 09/M00 A3003 RMK A01 T00871004  RH  053%=      5-min Rain = 0
KDC1 190254Z 30008KT 09/M00 A3003 RMK A01 T00881004  RH  053%=      5-min Rain = 0
KDC1 190255Z 30008KT 09/M00 A3003 RMK A01 T00881004  RH  053%=      5-min Rain = 0
KDC1 190256Z 30008KT 09/M00 A3003 RMK A01 T00881004  RH  053%=      5-min Rain = 0
KDC1 190257Z 30008KT 09/M00 A3003 RMK A01 T00891004  RH  052%=      5-min Rain = 0
KDC1 190258Z 30008KT 09/M00 A3003 RMK A01 T00891004  RH  052%=      5-min Rain = 0
KDC1 190259Z 29008KT 09/M00 A3003 RMK A01 T00891004  RH  052%=      5-min Rain = 0
KDC1 190300Z 29007KT 09/M00 A3003 RMK A01 T00881003  RH  053%=      5-min Rain = 0
KDC1 190301Z 29007KT 09/M00 A3003 RMK A01 T00871003  RH  053%=      5-min Rain = 0
KDC1 190302Z 29007KT 09/M00 A3003 RMK A01 T00851004  RH  054%=      5-min Rain = 0
KDC1 190303Z 29007KT 08/M00 A3003 RMK A01 T00841003  RH  054%=      5-min Rain = 0
KDC1 190304Z 29007KT 08/M00 A3003 RMK A01 T00831004  RH  054%=      5-min Rain = 0
KDC1 190305Z 29007KT 08/M00 A3003 RMK A01 T00831003  RH  055%=      5-min Rain = 0
KDC1 190306Z 29007KT 08/M00 A3003 RMK A01 T00821003  RH  055%=      5-min Rain = 0
KDC1 190307Z 29007KT 08/M00 A3003 RMK A01 T00821003  RH  055%=      5-min Rain = 0
KDC1 190308Z 29006KT 08/M00 A3003 RMK A01 T00821003  RH  055%=      5-min Rain = 0
KDC1 190309Z 29006KT 08/M00 A3003 RMK A01 T00811003  RH  055%=      5-min Rain = 0
KDC1 190310Z 28006KT 08/M00 A3003 RMK A01 T00801003  RH  056%=      5-min Rain = 0
KDC1 190311Z 29006KT 08/M00 A3003 RMK A01 T00791003  RH  056%=      5-min Rain = 0
KDC1 190312Z 29005KT 08/M00 A3003 RMK A01 T00791004  RH  056%=      5-min Rain = 0
KDC1 190313Z 30003KT 08/M00 A3003 RMK A01 T00791004  RH  056%=      5-min Rain = 0
KDC1 190314Z 30003KT 08/M00 A3003 RMK A01 T00791004  RH  056%=      5-min Rain = 0
KDC1 190315Z 30003KT 08/M00 A3003 RMK A01 T00791004  RH  056%=      5-min Rain = 0
KDC1 190316Z 30003KT 08/M00 A3003 RMK A01 T00791004  RH  056%=      5-min Rain = 0
KDC1 190317Z 29003KT 08/M00 A3003 RMK A01 T00791004  RH  056%=      5-min Rain = 0
KDC1 190318Z 29004KT 08/M00 A3003 RMK A01 T00791004  RH  056%=      5-min Rain = 0
KDC1 190319Z 29005KT 08/M01 A3003 RMK A01 T00781005  RH  056%=      5-min Rain = 0
KDC1 190320Z 29005KT 08/M01 A3003 RMK A01 T00781005  RH  055%=      5-min Rain = 0
KDC1 190321Z 29004KT 08/M01 A3004 RMK A01 T00781006  RH  055%=      5-min Rain = 0
KDC1 190322Z 30004KT 08/M01 A3004 RMK A01 T00771006  RH  056%=      5-min Rain = 0
KDC1 190323Z 30004KT 08/M01 A3004 RMK A01 T00771006  RH  056%=      5-min Rain = 0
KDC1 190324Z 31004KT 08/M01 A3004 RMK A01 T00761006  RH  056%=      5-min Rain = 0
KDC1 190325Z 32005KT 08/M01 A3004 RMK A01 T00761005  RH  056%=      5-min Rain = 0
KDC1 190326Z 32004KT 08/M01 A3004 RMK A01 T00751005  RH  057%=      5-min Rain = 0
KDC1 190327Z 32004KT 07/M01 A3004 RMK A01 T00741005  RH  057%=      5-min Rain = 0
KDC1 190328Z 32004KT 07/M00 A3004 RMK A01 T00731004  RH  058%=      5-min Rain = 0
KDC1 190329Z 32004KT 07/M00 A3004 RMK A01 T00731002  RH  059%=      5-min Rain = 0
KDC1 190330Z 32004KT 07/M00 A3004 RMK A01 T00721001  RH  060%=      5-min Rain = 0
KDC1 190331Z 32004KT 07/M00 A3004 RMK A01 T00721001  RH  060%=      5-min Rain = 0
KDC1 190332Z 33004KT 07/M00 A3004 RMK A01 T00711001  RH  060%=      5-min Rain = 0
KDC1 190333Z 33004KT 07/M00 A3004 RMK A01 T00711001  RH  060%=      5-min Rain = 0
KDC1 190334Z 33004KT 07/M00 A3004 RMK A01 T00721002  RH  060%=      5-min Rain = 0
KDC1 190335Z 33004KT 07/M00 A3004 RMK A01 T00721002  RH  059%=      5-min Rain = 0
KDC1 190336Z 33004KT 07/M00 A3004 RMK A01 T00711003  RH  059%=      5-min Rain = 0
KDC1 190337Z 33004KT 07/M00 A3004 RMK A01 T00721003  RH  059%=      5-min Rain = 0
KDC1 190338Z 34004KT 07/M00 A3004 RMK A01 T00731003  RH  058%=      5-min Rain = 0
KDC1 190339Z 34004KT 07/M00 A3004 RMK A01 T00741004  RH  058%=      5-min Rain = 0
KDC1 190340Z 33005KT 08/M01 A3004 RMK A01 T00751005  RH  057%=      5-min Rain = 0
KDC1 190341Z 33005KT 08/M01 A3004 RMK A01 T00761005  RH  057%=      5-min Rain = 0
KDC1 190342Z 33005KT 08/M01 A3004 RMK A01 T00771005  RH  056%=      5-min Rain = 0
KDC1 190343Z 33006KT 08/M01 A3004 RMK A01 T00781005  RH  055%=      5-min Rain = 0
KDC1 190344Z 32006KT 08/M01 A3004 RMK A01 T00791007  RH  054%=      5-min Rain = 0
KDC1 190345Z 33006KT 08/M01 A3004 RMK A01 T00801007  RH  054%=      5-min Rain = 0
KDC1 190346Z 33005KT 08/M01 A3004 RMK A01 T00791008  RH  054%=      5-min Rain = 0
KDC1 190347Z 35004KT 08/M01 A3004 RMK A01 T00761008  RH  055%=      5-min Rain = 0
KDC1 190348Z 35003KT 07/M01 A3004 RMK A01 T00741009  RH  056%=      5-min Rain = 0
KDC1 190349Z 00003KT 07/M01 A3004 RMK A01 T00731009  RH  056%=      5-min Rain = 0
KDC1 190350Z 00004KT 07/M01 A3004 RMK A01 T00731011  RH  055%=      5-min Rain = 0
KDC1 190351Z 00004KT 07/M01 A3004 RMK A01 T00741012  RH  054%=      5-min Rain = 0
KDC1 190352Z 00004KT 08/M01 A3004 RMK A01 T00751014  RH  053%=      5-min Rain = 0
KDC1 190353Z 00004KT 08/M02 A3004 RMK A01 T00751016  RH  052%=      5-min Rain = 0
KDC1 190354Z 36004KT 08/M02 A3004 RMK A01 T00761017  RH  052%=      5-min Rain = 0
KDC1 190355Z 36004KT 08/M02 A3004 RMK A01 T00751017  RH  052%=      5-min Rain = 0
KDC1 190356Z 00005KT 07/M02 A3005 RMK A01 T00741018  RH  052%=      5-min Rain = 0
KDC1 190357Z 01005KT 07/M02 A3005 RMK A01 T00741018  RH  052%=      5-min Rain = 0
KDC1 190358Z 01005KT 07/M02 A3005 RMK A01 T00741018  RH  052%=      5-min Rain = 0
KDC1 190359Z 01005KT 07/M02 A3005 RMK A01 T00741018  RH  052%=      5-min Rain = 0
KDC1 190400Z 01004KT 07/M02 A3005 RMK A01 T00741019  RH  052%=      5-min Rain = 0
KDC1 190401Z 01005KT 07/M02 A3005 RMK A01 T00731019  RH  052%=      5-min Rain = 0
KDC1 190402Z 36005KT 07/M02 A3005 RMK A01 T00721019  RH  052%=      5-min Rain = 0
KDC1 190403Z 35005KT 07/M02 A3005 RMK A01 T00721019  RH  053%=      5-min Rain = 0
KDC1 190404Z 34005KT 07/M02 A3004 RMK A01 T00721018  RH  053%=      5-min Rain = 0
KDC1 190405Z 34005KT 07/M02 A3004 RMK A01 T00721018  RH  053%=      5-min Rain = 0
KDC1 190406Z 33005KT 07/M02 A3004 RMK A01 T00731017  RH  053%=      5-min Rain = 0
KDC1 190407Z 33006KT 07/M02 A3004 RMK A01 T00721018  RH  053%=      5-min Rain = 0
KDC1 190408Z 33005KT 07/M02 A3004 RMK A01 T00681019  RH  054%=      5-min Rain = 0
KDC1 190409Z 34005KT 07/M02 A3004 RMK A01 T00651020  RH  055%=      5-min Rain = 0
KDC1 190410Z 34005KT 06/M02 A3004 RMK A01 T00641019  RH  055%=      5-min Rain = 0
KDC1 190411Z 34005KT 06/M02 A3004 RMK A01 T00631019  RH  056%=      5-min Rain = 0
KDC1 190412Z 34005KT 06/M02 A3004 RMK A01 T00631019  RH  056%=      5-min Rain = 0
KDC1 190413Z 34004KT 06/M02 A3005 RMK A01 T00641018  RH  056%=      5-min Rain = 0
KDC1 190414Z 34004KT 06/M02 A3005 RMK A01 T00641019  RH  055%=      5-min Rain = 0
KDC1 190415Z 33003KT 07/M02 A3005 RMK A01 T00651018  RH  055%=      5-min Rain = 0
KDC1 190416Z 32003KT 07/M02 A3005 RMK A01 T00671017  RH  055%=      5-min Rain = 0
KDC1 190417Z 32003KT 07/M02 A3005 RMK A01 T00691017  RH  054%=      5-min Rain = 0
KDC1 190418Z 32003KT 07/M02 A3005 RMK A01 T00711016  RH  054%=      5-min Rain = 0
KDC1 190419Z 33003KT 07/M02 A3005 RMK A01 T00721017  RH  053%=      5-min Rain = 0
KDC1 190420Z 33003KT 07/M02 A3005 RMK A01 T00721017  RH  053%=      5-min Rain = 0
KDC1 190421Z 33003KT 07/M02 A3005 RMK A01 T00721017  RH  053%=      5-min Rain = 0
KDC1 190422Z 33003KT 07/M02 A3005 RMK A01 T00731017  RH  053%=      5-min Rain = 0
KDC1 190423Z 33003KT 07/M02 A3005 RMK A01 T00721017  RH  053%=      5-min Rain = 0
KDC1 190424Z 34003KT 07/M02 A3005 RMK A01 T00731016  RH  053%=      5-min Rain = 0
KDC1 190425Z 35003KT 07/M02 A3005 RMK A01 T00741016  RH  053%=      5-min Rain = 0
KDC1 190426Z 35002KT 07/M02 A3005 RMK A01 T00741016  RH  053%=      5-min Rain = 0
KDC1 190427Z 35002KT 08/M02 A3005 RMK A01 T00751016  RH  053%=      5-min Rain = 0
KDC1 190428Z 35002KT 08/M02 A3005 RMK A01 T00751016  RH  053%=      5-min Rain = 0
KDC1 190429Z 34002KT 08/M02 A3005 RMK A01 T00751015  RH  053%=      5-min Rain = 0
KDC1 190430Z 33003KT 08/M01 A3005 RMK A01 T00761014  RH  053%=      5-min Rain = 0
KDC1 190431Z 33003KT 08/M02 A3005 RMK A01 T00761015  RH  053%=      5-min Rain = 0
KDC1 190432Z 32002KT 08/M01 A3005 RMK A01 T00761014  RH  053%=      5-min Rain = 0
KDC1 190433Z 30003KT 08/M02 A3005 RMK A01 T00761015  RH  053%=      5-min Rain = 0
KDC1 190434Z 30002KT 08/M02 A3005 RMK A01 T00761015  RH  052%=      5-min Rain = 0
KDC1 190435Z 32003KT 08/M02 A3005 RMK A01 T00761015  RH  053%=      5-min Rain = 0
KDC1 190436Z 32004KT 08/M01 A3005 RMK A01 T00751014  RH  053%=      5-min Rain = 0
KDC1 190437Z 32004KT 07/M01 A3005 RMK A01 T00741012  RH  054%=      5-min Rain = 0
KDC1 190438Z 30003KT 07/M01 A3005 RMK A01 T00701010  RH  057%=      5-min Rain = 0
KDC1 190439Z 30003KT 06/M01 A3005 RMK A01 T00641012  RH  059%=      5-min Rain = 0
KDC1 190440Z 30003KT 06/M01 A3005 RMK A01 T00581013  RH  060%=      5-min Rain = 0
KDC1 190441Z 31004KT 06/M02 A3005 RMK A01 T00551015  RH  061%=      5-min Rain = 0
KDC1 190442Z 32004KT 05/M02 A3005 RMK A01 T00521016  RH  062%=      5-min Rain = 0
KDC1 190443Z 31003KT 05/M02 A3005 RMK A01 T00501016  RH  062%=      5-min Rain = 0
KDC1 190444Z 31003KT 05/M02 A3005 RMK A01 T00501015  RH  063%=      5-min Rain = 0
KDC1 190445Z 31004KT 05/M01 A3005 RMK A01 T00531013  RH  062%=      5-min Rain = 0
KDC1 190446Z 31004KT 06/M01 A3005 RMK A01 T00571013  RH  061%=      5-min Rain = 0
KDC1 190447Z 31005KT 06/M01 A3005 RMK A01 T00591014  RH  060%=      5-min Rain = 0
KDC1 190448Z 31005KT 06/M02 A3005 RMK A01 T00591015  RH  059%=      5-min Rain = 0
KDC1 190449Z 31005KT 06/M01 A3005 RMK A01 T00571014  RH  060%=      5-min Rain = 0
KDC1 190450Z 30005KT 06/M01 A3005 RMK A01 T00591012  RH  060%=      5-min Rain = 0
KDC1 190451Z 30005KT 06/M01 A3005 RMK A01 T00611011  RH  060%=      5-min Rain = 0
KDC1 190452Z 30004KT 06/M01 A3005 RMK A01 T00621012  RH  059%=      5-min Rain = 0
KDC1 190453Z 29004KT 06/M01 A3005 RMK A01 T00611012  RH  059%=      5-min Rain = 0
KDC1 190454Z 29004KT 06/M01 A3005 RMK A01 T00601012  RH  060%=      5-min Rain = 0
KDC1 190455Z 30005KT 06/M01 A3005 RMK A01 T00581013  RH  060%=      5-min Rain = 0
KDC1 190456Z 31005KT 06/M01 A3005 RMK A01 T00561012  RH  062%=      5-min Rain = 0
KDC1 190457Z 32005KT 06/M01 A3005 RMK A01 T00561011  RH  062%=      5-min Rain = 0
KDC1 190458Z 32005KT 06/M01 A3005 RMK A01 T00551012  RH  062%=      5-min Rain = 0
KDC1 190459Z 32004KT 06/M01 A3005 RMK A01 T00561013  RH  061%=      5-min Rain = 0
KDC1 190500Z 32004KT 06/M01 A3005 RMK A01 T00571014  RH  060%=      5-min Rain = 0
KDC1 190501Z 32004KT 06/M01 A3005 RMK A01 T00591014  RH  059%=      5-min Rain = 0
KDC1 190502Z 32005KT 06/M02 A3005 RMK A01 T00611015  RH  058%=      5-min Rain = 0
KDC1 190503Z 32005KT 06/M02 A3005 RMK A01 T00631016  RH  057%=      5-min Rain = 0
KDC1 190504Z 31005KT 06/M02 A3005 RMK A01 T00621016  RH  057%=      5-min Rain = 0
KDC1 190505Z 30005KT 06/M02 A3005 RMK A01 T00591015  RH  059%=      5-min Rain = 0
KDC1 190506Z 29005KT 06/M01 A3005 RMK A01 T00581013  RH  061%=      5-min Rain = 0
KDC1 190507Z 29005KT 06/M01 A3005 RMK A01 T00611011  RH  060%=      5-min Rain = 0
KDC1 190508Z 29005KT 07/M01 A3005 RMK A01 T00661011  RH  058%=      5-min Rain = 0
KDC1 190509Z 29004KT 07/M01 A3005 RMK A01 T00691011  RH  057%=      5-min Rain = 0
KDC1 190510Z 30004KT 07/M01 A3005 RMK A01 T00701011  RH  056%=      5-min Rain = 0
KDC1 190511Z 29004KT 07/M01 A3005 RMK A01 T00711011  RH  056%=      5-min Rain = 0
KDC1 190512Z 28005KT 07/M01 A3005 RMK A01 T00721011  RH  056%=      5-min Rain = 0
KDC1 190513Z 29005KT 07/M01 A3005 RMK A01 T00721011  RH  056%=      5-min Rain = 0
KDC1 190514Z 28006KT 07/M01 A3005 RMK A01 T00711011  RH  056%=      5-min Rain = 0
KDC1 190515Z 28006KT 07/M01 A3005 RMK A01 T00701011  RH  056%=      5-min Rain = 0
KDC1 190516Z 28006KT 07/M01 A3005 RMK A01 T00691011  RH  057%=      5-min Rain = 0
KDC1 190517Z 29005KT 07/M01 A3005 RMK A01 T00681011  RH  057%=      5-min Rain = 0
KDC1 190518Z 30004KT 07/M01 A3005 RMK A01 T00681010  RH  057%=      5-min Rain = 0
KDC1 190519Z 30005KT 07/M01 A3005 RMK A01 T00661009  RH  058%=      5-min Rain = 0
KDC1 190520Z 30005KT 06/M01 A3005 RMK A01 T00631009  RH  060%=      5-min Rain = 0
KDC1 190521Z 30005KT 06/M01 A3005 RMK A01 T00611008  RH  061%=      5-min Rain = 0
KDC1 190522Z 30005KT 06/M01 A3005 RMK A01 T00601009  RH  061%=      5-min Rain = 0
KDC1 190523Z 31004KT 06/M01 A3005 RMK A01 T00591011  RH  061%=      5-min Rain = 0
KDC1 190524Z 31004KT 06/M01 A3005 RMK A01 T00581011  RH  061%=      5-min Rain = 0
KDC1 190525Z 31004KT 06/M01 A3005 RMK A01 T00581012  RH  061%=      5-min Rain = 0
KDC1 190526Z 32004KT 06/M01 A3005 RMK A01 T00571013  RH  061%=      5-min Rain = 0
KDC1 190527Z 32004KT 06/M02 A3005 RMK A01 T00551015  RH  061%=      5-min Rain = 0
KDC1 190528Z 32004KT 05/M02 A3005 RMK A01 T00531016  RH  061%=      5-min Rain = 0
KDC1 190529Z 31005KT 05/M02 A3005 RMK A01 T00511016  RH  062%=      5-min Rain = 0
KDC1 190530Z 31006KT 05/M02 A3005 RMK A01 T00491016  RH  063%=      5-min Rain = 0
KDC1 190531Z 31005KT 05/M01 A3005 RMK A01 T00471014  RH  064%=      5-min Rain = 0
KDC1 190532Z 31005KT 05/M01 A3005 RMK A01 T00471011  RH  066%=      5-min Rain = 0
KDC1 190533Z 31005KT 05/M01 A3005 RMK A01 T00471011  RH  066%=      5-min Rain = 0
KDC1 190534Z 30006KT 05/M01 A3005 RMK A01 T00461011  RH  066%=      5-min Rain = 0
KDC1 190535Z 30007KT 05/M01 A3005 RMK A01 T00451011  RH  067%=      5-min Rain = 0
KDC1 190536Z 30007KT 04/M01 A3005 RMK A01 T00441012  RH  067%=      5-min Rain = 0
KDC1 190537Z 31007KT 04/M01 A3005 RMK A01 T00441012  RH  067%=      5-min Rain = 0
KDC1 190538Z 31006KT 05/M01 A3005 RMK A01 T00461013  RH  066%=      5-min Rain = 0
KDC1 190539Z 32006KT 05/M01 A3005 RMK A01 T00481014  RH  064%=      5-min Rain = 0
KDC1 190540Z 33006KT 05/M01 A3005 RMK A01 T00511014  RH  063%=      5-min Rain = 0
KDC1 190541Z 33006KT 05/M02 A3005 RMK A01 T00521015  RH  062%=      5-min Rain = 0
KDC1 190542Z 33006KT 05/M01 A3005 RMK A01 T00531014  RH  062%=      5-min Rain = 0
KDC1 190543Z 33006KT 06/M01 A3005 RMK A01 T00551014  RH  061%=      5-min Rain = 0
KDC1 190544Z 33007KT 06/M02 A3005 RMK A01 T00561015  RH  060%=      5-min Rain = 0
KDC1 190545Z 33007KT 06/M01 A3005 RMK A01 T00591014  RH  059%=      5-min Rain = 0
KDC1 190546Z 33006KT 06/M02 A3005 RMK A01 T00631015  RH  057%=      5-min Rain = 0
KDC1 190547Z 33007KT 06/M02 A3005 RMK A01 T00611017  RH  057%=      5-min Rain = 0
KDC1 190548Z 34007KT 06/M02 A3005 RMK A01 T00601017  RH  058%=      5-min Rain = 0
KDC1 190549Z 34007KT 06/M02 A3005 RMK A01 T00611016  RH  058%=      5-min Rain = 0
KDC1 190550Z 34005KT 06/M02 A3005 RMK A01 T00631015  RH  057%=      5-min Rain = 0
KDC1 190551Z 34005KT 07/M01 A3005 RMK A01 T00661014  RH  057%=      5-min Rain = 0
KDC1 190552Z 34005KT 07/M01 A3005 RMK A01 T00671014  RH  056%=      5-min Rain = 0
KDC1 190553Z 34005KT 07/M01 A3005 RMK A01 T00681014  RH  056%=      5-min Rain = 0
KDC1 190554Z 35004KT 07/M01 A3005 RMK A01 T00681014  RH  056%=      5-min Rain = 0
KDC1 190555Z 35004KT 07/M01 A3005 RMK A01 T00681013  RH  056%=      5-min Rain = 0
KDC1 190556Z 34003KT 07/M01 A3005 RMK A01 T00671013  RH  056%=      5-min Rain = 0
KDC1 190557Z 34004KT 07/M01 A3005 RMK A01 T00671013  RH  057%=      5-min Rain = 0
KDC1 190558Z 34005KT 07/M01 A3005 RMK A01 T00651013  RH  057%=      5-min Rain = 0
KDC1 190559Z 34006KT 06/M01 A3005 RMK A01 T00641013  RH  058%=      5-min Rain = 0

Page generated in 0.0707 seconds.